<?xml version="1.0" encoding="utf-8"?>
<gpx xmlns:xsi="http://www.w3.org/2001/XMLSchema-instance" xmlns:xsd="http://www.w3.org/2001/XMLSchema" version="1.1" creator="Shapelink.com" xmlns="http://www.topografix.com/GPX/1/1" xmlns:gpxtpx="http://www.garmin.com/xmlschemas/TrackPointExtension/v1">
  <metadata>
    <name>Orientering 11.61 km, 2012-02-11</name>
    <desc></desc>
    <author><name>Dennis Rehn</name></author> 
    <time>2012-02-11T09:32:13Z</time>
  </metadata>
  <trk>
    <name>Orientering 11.61 km, 2012-02-11</name>
    <trkseg>
      <trkpt lat="59.9752921268" lon="23.4502997925">
        <ele>15.8</ele>
        <time>2012-02-11T09:32:13Z</time>
      </trkpt>
      <trkpt lat="59.9751700025" lon="23.4503382654">
        <ele>18</ele>
        <time>2012-02-11T09:32:22Z</time>
      </trkpt>
      <trkpt lat="59.9750519853" lon="23.4503851203">
        <ele>19.4</ele>
        <time>2012-02-11T09:32:25Z</time>
      </trkpt>
      <trkpt lat="59.9749319565" lon="23.4507354837">
        <ele>20.8</ele>
        <time>2012-02-11T09:32:30Z</time>
      </trkpt>
      <trkpt lat="59.9747929008" lon="23.4511842506">
        <ele>23</ele>
        <time>2012-02-11T09:32:37Z</time>
      </trkpt>
      <trkpt lat="59.9746952517" lon="23.4512853363">
        <ele>23.6</ele>
        <time>2012-02-11T09:32:40Z</time>
      </trkpt>
      <trkpt lat="59.9746276097" lon="23.451367898">
        <ele>23.8</ele>
        <time>2012-02-11T09:32:42Z</time>
      </trkpt>
      <trkpt lat="59.9744740533" lon="23.4516432435">
        <ele>24.4</ele>
        <time>2012-02-11T09:32:46Z</time>
      </trkpt>
      <trkpt lat="59.9744261089" lon="23.4517792817">
        <ele>25</ele>
        <time>2012-02-11T09:32:48Z</time>
      </trkpt>
      <trkpt lat="59.9743961017" lon="23.452072732">
        <ele>25.6</ele>
        <time>2012-02-11T09:32:52Z</time>
      </trkpt>
      <trkpt lat="59.9743930842" lon="23.4521425532">
        <ele>26</ele>
        <time>2012-02-11T09:32:53Z</time>
      </trkpt>
      <trkpt lat="59.9744276176" lon="23.4525038969">
        <ele>26.4</ele>
        <time>2012-02-11T09:32:58Z</time>
      </trkpt>
      <trkpt lat="59.9743677708" lon="23.4526753906">
        <ele>26.6</ele>
        <time>2012-02-11T09:33:01Z</time>
      </trkpt>
      <trkpt lat="59.9742160584" lon="23.4527157914">
        <ele>26.8</ele>
        <time>2012-02-11T09:33:05Z</time>
      </trkpt>
      <trkpt lat="59.9741615761" lon="23.453031789">
        <ele>27</ele>
        <time>2012-02-11T09:33:10Z</time>
      </trkpt>
      <trkpt lat="59.9739493464" lon="23.4532617045">
        <ele>27</ele>
        <time>2012-02-11T09:33:18Z</time>
      </trkpt>
      <trkpt lat="59.9737705605" lon="23.453459685">
        <ele>26.4</ele>
        <time>2012-02-11T09:33:25Z</time>
      </trkpt>
      <trkpt lat="59.9735999888" lon="23.4535993275">
        <ele>25.6</ele>
        <time>2012-02-11T09:33:29Z</time>
      </trkpt>
      <trkpt lat="59.9734257291" lon="23.4536849067">
        <ele>24.6</ele>
        <time>2012-02-11T09:33:34Z</time>
      </trkpt>
      <trkpt lat="59.9732839073" lon="23.4537689771">
        <ele>23.8</ele>
        <time>2012-02-11T09:33:40Z</time>
      </trkpt>
      <trkpt lat="59.9732640422" lon="23.4539786922">
        <ele>23.6</ele>
        <time>2012-02-11T09:33:43Z</time>
      </trkpt>
      <trkpt lat="59.9732649642" lon="23.4542954443">
        <ele>22.6</ele>
        <time>2012-02-11T09:33:47Z</time>
      </trkpt>
      <trkpt lat="59.9732092246" lon="23.4547463905">
        <ele>21.8</ele>
        <time>2012-02-11T09:33:53Z</time>
      </trkpt>
      <trkpt lat="59.9731524792" lon="23.4551216481">
        <ele>21.4</ele>
        <time>2012-02-11T09:33:58Z</time>
      </trkpt>
      <trkpt lat="59.9730804786" lon="23.4554760349">
        <ele>21.2</ele>
        <time>2012-02-11T09:34:03Z</time>
      </trkpt>
      <trkpt lat="59.9729847573" lon="23.4556905277">
        <ele>21.2</ele>
        <time>2012-02-11T09:34:08Z</time>
      </trkpt>
      <trkpt lat="59.9729064704" lon="23.456027983">
        <ele>21</ele>
        <time>2012-02-11T09:34:13Z</time>
      </trkpt>
      <trkpt lat="59.9728395828" lon="23.4563837108">
        <ele>21</ele>
        <time>2012-02-11T09:34:18Z</time>
      </trkpt>
      <trkpt lat="59.9727754613" lon="23.4567205794">
        <ele>21</ele>
        <time>2012-02-11T09:34:22Z</time>
      </trkpt>
      <trkpt lat="59.9727012815" lon="23.4570929872">
        <ele>21</ele>
        <time>2012-02-11T09:34:28Z</time>
      </trkpt>
      <trkpt lat="59.9726213181" lon="23.457490876">
        <ele>21</ele>
        <time>2012-02-11T09:34:33Z</time>
      </trkpt>
      <trkpt lat="59.9724744673" lon="23.4573804864">
        <ele>21</ele>
        <time>2012-02-11T09:34:38Z</time>
      </trkpt>
      <trkpt lat="59.9722741398" lon="23.4572308694">
        <ele>21</ele>
        <time>2012-02-11T09:34:43Z</time>
      </trkpt>
      <trkpt lat="59.9721142132" lon="23.4571530854">
        <ele>20.8</ele>
        <time>2012-02-11T09:34:46Z</time>
      </trkpt>
      <trkpt lat="59.9719868921" lon="23.4572745391">
        <ele>20.8</ele>
        <time>2012-02-11T09:34:51Z</time>
      </trkpt>
      <trkpt lat="59.9719481678" lon="23.457407979">
        <ele>21.2</ele>
        <time>2012-02-11T09:34:52Z</time>
      </trkpt>
      <trkpt lat="59.9718730659" lon="23.4577620305">
        <ele>21.8</ele>
        <time>2012-02-11T09:34:58Z</time>
      </trkpt>
      <trkpt lat="59.9718139735" lon="23.4580912715">
        <ele>22.4</ele>
        <time>2012-02-11T09:35:02Z</time>
      </trkpt>
      <trkpt lat="59.9716888318" lon="23.4587780844">
        <ele>22.8</ele>
        <time>2012-02-11T09:35:12Z</time>
      </trkpt>
      <trkpt lat="59.9716082817" lon="23.4591140309">
        <ele>22.8</ele>
        <time>2012-02-11T09:35:17Z</time>
      </trkpt>
      <trkpt lat="59.9715307491" lon="23.4594462056">
        <ele>22.8</ele>
        <time>2012-02-11T09:35:22Z</time>
      </trkpt>
      <trkpt lat="59.9714496962" lon="23.4598071302">
        <ele>23.2</ele>
        <time>2012-02-11T09:35:27Z</time>
      </trkpt>
      <trkpt lat="59.9713715769" lon="23.4601648697">
        <ele>23.8</ele>
        <time>2012-02-11T09:35:32Z</time>
      </trkpt>
      <trkpt lat="59.9713098861" lon="23.4605235312">
        <ele>24.4</ele>
        <time>2012-02-11T09:35:37Z</time>
      </trkpt>
      <trkpt lat="59.9712447587" lon="23.4608590587">
        <ele>24.6</ele>
        <time>2012-02-11T09:35:42Z</time>
      </trkpt>
      <trkpt lat="59.9711849958" lon="23.4612018784">
        <ele>24.8</ele>
        <time>2012-02-11T09:35:46Z</time>
      </trkpt>
      <trkpt lat="59.9711933777" lon="23.4612781537">
        <ele>24.8</ele>
        <time>2012-02-11T09:35:48Z</time>
      </trkpt>
      <trkpt lat="59.9713457606" lon="23.4614478872">
        <ele>24.8</ele>
        <time>2012-02-11T09:35:52Z</time>
      </trkpt>
      <trkpt lat="59.9715387958" lon="23.4615478832">
        <ele>25</ele>
        <time>2012-02-11T09:35:58Z</time>
      </trkpt>
      <trkpt lat="59.9716346009" lon="23.461635977">
        <ele>25</ele>
        <time>2012-02-11T09:36:02Z</time>
      </trkpt>
      <trkpt lat="59.971650275" lon="23.4622476042">
        <ele>26.2</ele>
        <time>2012-02-11T09:36:10Z</time>
      </trkpt>
      <trkpt lat="59.9716653625" lon="23.4626133904">
        <ele>26.6</ele>
        <time>2012-02-11T09:36:16Z</time>
      </trkpt>
      <trkpt lat="59.9716880774" lon="23.462883539">
        <ele>27.2</ele>
        <time>2012-02-11T09:36:20Z</time>
      </trkpt>
      <trkpt lat="59.9716857305" lon="23.4630329044">
        <ele>27.6</ele>
        <time>2012-02-11T09:36:22Z</time>
      </trkpt>
      <trkpt lat="59.9716904243" lon="23.4632380095">
        <ele>28</ele>
        <time>2012-02-11T09:36:25Z</time>
      </trkpt>
      <trkpt lat="59.9717107924" lon="23.4632917375">
        <ele>28.4</ele>
        <time>2012-02-11T09:36:28Z</time>
      </trkpt>
      <trkpt lat="59.9717154862" lon="23.4632860378">
        <ele>28.8</ele>
        <time>2012-02-11T09:36:34Z</time>
      </trkpt>
      <trkpt lat="59.9718222716" lon="23.4633163803">
        <ele>29</ele>
        <time>2012-02-11T09:36:38Z</time>
      </trkpt>
      <trkpt lat="59.9718495128" lon="23.4633602176">
        <ele>29</ele>
        <time>2012-02-11T09:36:40Z</time>
      </trkpt>
      <trkpt lat="59.9720213417" lon="23.4635398418">
        <ele>29.2</ele>
        <time>2012-02-11T09:36:45Z</time>
      </trkpt>
      <trkpt lat="59.9720942643" lon="23.463660122">
        <ele>29.2</ele>
        <time>2012-02-11T09:36:48Z</time>
      </trkpt>
      <trkpt lat="59.9721033167" lon="23.4639948951">
        <ele>29.2</ele>
        <time>2012-02-11T09:36:52Z</time>
      </trkpt>
      <trkpt lat="59.9721598946" lon="23.4643395588">
        <ele>29.2</ele>
        <time>2012-02-11T09:36:58Z</time>
      </trkpt>
      <trkpt lat="59.9722178973" lon="23.4647149841">
        <ele>30</ele>
        <time>2012-02-11T09:37:03Z</time>
      </trkpt>
      <trkpt lat="59.972259723" lon="23.4650942651">
        <ele>30.6</ele>
        <time>2012-02-11T09:37:08Z</time>
      </trkpt>
      <trkpt lat="59.9722802586" lon="23.4654602189">
        <ele>30.8</ele>
        <time>2012-02-11T09:37:13Z</time>
      </trkpt>
      <trkpt lat="59.9722805939" lon="23.4656043875">
        <ele>31</ele>
        <time>2012-02-11T09:37:16Z</time>
      </trkpt>
      <trkpt lat="59.972099964" lon="23.4658156952">
        <ele>31</ele>
        <time>2012-02-11T09:37:21Z</time>
      </trkpt>
      <trkpt lat="59.9718998042" lon="23.4658180422">
        <ele>31.2</ele>
        <time>2012-02-11T09:37:27Z</time>
      </trkpt>
      <trkpt lat="59.9716958726" lon="23.4658020328">
        <ele>31.2</ele>
        <time>2012-02-11T09:37:32Z</time>
      </trkpt>
      <trkpt lat="59.9716517838" lon="23.4657923936">
        <ele>31.2</ele>
        <time>2012-02-11T09:37:33Z</time>
      </trkpt>
      <trkpt lat="59.9715262229" lon="23.4657866939">
        <ele>31.2</ele>
        <time>2012-02-11T09:37:36Z</time>
      </trkpt>
      <trkpt lat="59.971409463" lon="23.4657622187">
        <ele>31.2</ele>
        <time>2012-02-11T09:37:38Z</time>
      </trkpt>
      <trkpt lat="59.9712479438" lon="23.4656823392">
        <ele>31.2</ele>
        <time>2012-02-11T09:37:43Z</time>
      </trkpt>
      <trkpt lat="59.9710205429" lon="23.4655605502">
        <ele>31.2</ele>
        <time>2012-02-11T09:37:48Z</time>
      </trkpt>
      <trkpt lat="59.9709782143" lon="23.4655361589">
        <ele>31.2</ele>
        <time>2012-02-11T09:37:50Z</time>
      </trkpt>
      <trkpt lat="59.9707910465" lon="23.4654511664">
        <ele>31.2</ele>
        <time>2012-02-11T09:37:55Z</time>
      </trkpt>
      <trkpt lat="59.9705607957" lon="23.465349494">
        <ele>31.2</ele>
        <time>2012-02-11T09:38:01Z</time>
      </trkpt>
      <trkpt lat="59.9703572831" lon="23.4652756494">
        <ele>31.2</ele>
        <time>2012-02-11T09:38:06Z</time>
      </trkpt>
      <trkpt lat="59.9701595541" lon="23.4652386014">
        <ele>31.2</ele>
        <time>2012-02-11T09:38:10Z</time>
      </trkpt>
      <trkpt lat="59.9701147948" lon="23.4652291299">
        <ele>31</ele>
        <time>2012-02-11T09:38:12Z</time>
      </trkpt>
      <trkpt lat="59.9699040738" lon="23.4652016373">
        <ele>30.4</ele>
        <time>2012-02-11T09:38:17Z</time>
      </trkpt>
      <trkpt lat="59.9697390342" lon="23.4652084266">
        <ele>30</ele>
        <time>2012-02-11T09:38:21Z</time>
      </trkpt>
      <trkpt lat="59.9696289798" lon="23.4653142062">
        <ele>29.6</ele>
        <time>2012-02-11T09:38:25Z</time>
      </trkpt>
      <trkpt lat="59.9696408821" lon="23.4656382504">
        <ele>29.4</ele>
        <time>2012-02-11T09:38:28Z</time>
      </trkpt>
      <trkpt lat="59.9696121322" lon="23.4660738578">
        <ele>28.4</ele>
        <time>2012-02-11T09:38:33Z</time>
      </trkpt>
      <trkpt lat="59.9696095338" lon="23.4661512227">
        <ele>28.4</ele>
        <time>2012-02-11T09:38:34Z</time>
      </trkpt>
      <trkpt lat="59.9695975477" lon="23.4663973153">
        <ele>27.6</ele>
        <time>2012-02-11T09:38:38Z</time>
      </trkpt>
      <trkpt lat="59.9695868189" lon="23.4667788594">
        <ele>26.4</ele>
        <time>2012-02-11T09:38:43Z</time>
      </trkpt>
      <trkpt lat="59.9696046723" lon="23.4672458988">
        <ele>24.8</ele>
        <time>2012-02-11T09:38:50Z</time>
      </trkpt>
      <trkpt lat="59.9696573107" lon="23.4675799176">
        <ele>24</ele>
        <time>2012-02-11T09:38:55Z</time>
      </trkpt>
      <trkpt lat="59.9696846357" lon="23.4679358969">
        <ele>23.6</ele>
        <time>2012-02-11T09:39:00Z</time>
      </trkpt>
      <trkpt lat="59.9697073506" lon="23.4682995875">
        <ele>22.6</ele>
        <time>2012-02-11T09:39:04Z</time>
      </trkpt>
      <trkpt lat="59.969762755" lon="23.4686376295">
        <ele>21.8</ele>
        <time>2012-02-11T09:39:10Z</time>
      </trkpt>
      <trkpt lat="59.9698283014" lon="23.468981958">
        <ele>21.4</ele>
        <time>2012-02-11T09:39:15Z</time>
      </trkpt>
      <trkpt lat="59.9698772517" lon="23.4692878973">
        <ele>21.2</ele>
        <time>2012-02-11T09:39:20Z</time>
      </trkpt>
      <trkpt lat="59.9698837058" lon="23.4696498278">
        <ele>21</ele>
        <time>2012-02-11T09:39:25Z</time>
      </trkpt>
      <trkpt lat="59.9699895692" lon="23.469902123">
        <ele>21</ele>
        <time>2012-02-11T09:39:30Z</time>
      </trkpt>
      <trkpt lat="59.9701321453" lon="23.4701348045">
        <ele>20.8</ele>
        <time>2012-02-11T09:39:36Z</time>
      </trkpt>
      <trkpt lat="59.9702080853" lon="23.4702663165">
        <ele>20.8</ele>
        <time>2012-02-11T09:39:40Z</time>
      </trkpt>
      <trkpt lat="59.9702930778" lon="23.4703353834">
        <ele>20.8</ele>
        <time>2012-02-11T09:39:45Z</time>
      </trkpt>
      <trkpt lat="59.970403635" lon="23.4704213817">
        <ele>20.4</ele>
        <time>2012-02-11T09:39:48Z</time>
      </trkpt>
      <trkpt lat="59.9704844366" lon="23.4704427555">
        <ele>20.2</ele>
        <time>2012-02-11T09:39:51Z</time>
      </trkpt>
      <trkpt lat="59.9707386596" lon="23.470505033">
        <ele>19.4</ele>
        <time>2012-02-11T09:39:57Z</time>
      </trkpt>
      <trkpt lat="59.9709333711" lon="23.4704815637">
        <ele>19.2</ele>
        <time>2012-02-11T09:40:03Z</time>
      </trkpt>
      <trkpt lat="59.971113582" lon="23.4705003392">
        <ele>19</ele>
        <time>2012-02-11T09:40:08Z</time>
      </trkpt>
      <trkpt lat="59.9713184356" lon="23.4705249819">
        <ele>18.4</ele>
        <time>2012-02-11T09:40:13Z</time>
      </trkpt>
      <trkpt lat="59.9715175057" lon="23.4704764507">
        <ele>17.6</ele>
        <time>2012-02-11T09:40:20Z</time>
      </trkpt>
      <trkpt lat="59.9716812042" lon="23.4703599423">
        <ele>17.2</ele>
        <time>2012-02-11T09:40:25Z</time>
      </trkpt>
      <trkpt lat="59.9718223554" lon="23.4701892868">
        <ele>17</ele>
        <time>2012-02-11T09:40:30Z</time>
      </trkpt>
      <trkpt lat="59.9719122932" lon="23.470016033">
        <ele>17</ele>
        <time>2012-02-11T09:40:33Z</time>
      </trkpt>
      <trkpt lat="59.9719979562" lon="23.4697921524">
        <ele>16.8</ele>
        <time>2012-02-11T09:40:38Z</time>
      </trkpt>
      <trkpt lat="59.9720350042" lon="23.4696755602">
        <ele>16.8</ele>
        <time>2012-02-11T09:40:40Z</time>
      </trkpt>
      <trkpt lat="59.9721271213" lon="23.4693917491">
        <ele>16.8</ele>
        <time>2012-02-11T09:40:45Z</time>
      </trkpt>
      <trkpt lat="59.9722115271" lon="23.4690957842">
        <ele>16.8</ele>
        <time>2012-02-11T09:40:49Z</time>
      </trkpt>
      <trkpt lat="59.9723289575" lon="23.468739302">
        <ele>16.8</ele>
        <time>2012-02-11T09:40:56Z</time>
      </trkpt>
      <trkpt lat="59.9724056519" lon="23.4684471928">
        <ele>16.8</ele>
        <time>2012-02-11T09:41:00Z</time>
      </trkpt>
      <trkpt lat="59.9724962602" lon="23.4681191252">
        <ele>17</ele>
        <time>2012-02-11T09:41:06Z</time>
      </trkpt>
      <trkpt lat="59.9726039676" lon="23.4677816699">
        <ele>17.8</ele>
        <time>2012-02-11T09:41:12Z</time>
      </trkpt>
      <trkpt lat="59.9727016167" lon="23.4674542729">
        <ele>18.2</ele>
        <time>2012-02-11T09:41:17Z</time>
      </trkpt>
      <trkpt lat="59.972812174" lon="23.4671010596">
        <ele>19.4</ele>
        <time>2012-02-11T09:41:23Z</time>
      </trkpt>
      <trkpt lat="59.9728409239" lon="23.4670725612">
        <ele>19.4</ele>
        <time>2012-02-11T09:41:25Z</time>
      </trkpt>
      <trkpt lat="59.9729016927" lon="23.4672572982">
        <ele>20</ele>
        <time>2012-02-11T09:41:28Z</time>
      </trkpt>
      <trkpt lat="59.9729606175" lon="23.4675295423">
        <ele>20.2</ele>
        <time>2012-02-11T09:41:33Z</time>
      </trkpt>
      <trkpt lat="59.9731040318" lon="23.467519065">
        <ele>20.4</ele>
        <time>2012-02-11T09:41:37Z</time>
      </trkpt>
      <trkpt lat="59.9731184486" lon="23.4675094258">
        <ele>20.4</ele>
        <time>2012-02-11T09:41:38Z</time>
      </trkpt>
      <trkpt lat="59.9732580073" lon="23.4673294664">
        <ele>20.6</ele>
        <time>2012-02-11T09:41:43Z</time>
      </trkpt>
      <trkpt lat="59.9733894355" lon="23.4673397761">
        <ele>20.6</ele>
        <time>2012-02-11T09:41:46Z</time>
      </trkpt>
      <trkpt lat="59.9735788664" lon="23.4675379242">
        <ele>20.8</ele>
        <time>2012-02-11T09:41:52Z</time>
      </trkpt>
      <trkpt lat="59.9737029185" lon="23.4676393452">
        <ele>20.8</ele>
        <time>2012-02-11T09:41:55Z</time>
      </trkpt>
      <trkpt lat="59.9738446565" lon="23.4676488168">
        <ele>20.8</ele>
        <time>2012-02-11T09:41:58Z</time>
      </trkpt>
      <trkpt lat="59.9740951914" lon="23.4675301291">
        <ele>20.8</ele>
        <time>2012-02-11T09:42:05Z</time>
      </trkpt>
      <trkpt lat="59.974219495" lon="23.4674551111">
        <ele>20.8</ele>
        <time>2012-02-11T09:42:08Z</time>
      </trkpt>
      <trkpt lat="59.9744777414" lon="23.4673326515">
        <ele>20.8</ele>
        <time>2012-02-11T09:42:15Z</time>
      </trkpt>
      <trkpt lat="59.9745743847" lon="23.467224525">
        <ele>20.8</ele>
        <time>2012-02-11T09:42:18Z</time>
      </trkpt>
      <trkpt lat="59.9748251711" lon="23.4673331544">
        <ele>20.8</ele>
        <time>2012-02-11T09:42:32Z</time>
      </trkpt>
      <trkpt lat="59.974968334" lon="23.4674622357">
        <ele>20.8</ele>
        <time>2012-02-11T09:42:36Z</time>
      </trkpt>
      <trkpt lat="59.9751284283" lon="23.4674112737">
        <ele>20.8</ele>
        <time>2012-02-11T09:42:40Z</time>
      </trkpt>
      <trkpt lat="59.9753561645" lon="23.4673215036">
        <ele>20.8</ele>
        <time>2012-02-11T09:42:46Z</time>
      </trkpt>
      <trkpt lat="59.9755388899" lon="23.4672432166">
        <ele>20.8</ele>
        <time>2012-02-11T09:42:51Z</time>
      </trkpt>
      <trkpt lat="59.9757160833" lon="23.4671570507">
        <ele>20.8</ele>
        <time>2012-02-11T09:42:56Z</time>
      </trkpt>
      <trkpt lat="59.9758974676" lon="23.4670769197">
        <ele>20.8</ele>
        <time>2012-02-11T09:43:01Z</time>
      </trkpt>
      <trkpt lat="59.9760376968" lon="23.467059653">
        <ele>20.8</ele>
        <time>2012-02-11T09:43:04Z</time>
      </trkpt>
      <trkpt lat="59.9761328313" lon="23.4673586354">
        <ele>20.8</ele>
        <time>2012-02-11T09:43:09Z</time>
      </trkpt>
      <trkpt lat="59.9762586437" lon="23.4676053147">
        <ele>20.8</ele>
        <time>2012-02-11T09:43:13Z</time>
      </trkpt>
      <trkpt lat="59.9763873058" lon="23.4676207374">
        <ele>20.8</ele>
        <time>2012-02-11T09:43:17Z</time>
      </trkpt>
      <trkpt lat="59.9765785808" lon="23.4675517544">
        <ele>20.8</ele>
        <time>2012-02-11T09:43:22Z</time>
      </trkpt>
      <trkpt lat="59.9767652457" lon="23.4674729645">
        <ele>20.8</ele>
        <time>2012-02-11T09:43:28Z</time>
      </trkpt>
      <trkpt lat="59.9769506533" lon="23.4673795063">
        <ele>20.8</ele>
        <time>2012-02-11T09:43:33Z</time>
      </trkpt>
      <trkpt lat="59.9771274276" lon="23.4672908258">
        <ele>20.8</ele>
        <time>2012-02-11T09:43:38Z</time>
      </trkpt>
      <trkpt lat="59.9773290961" lon="23.4672039055">
        <ele>20.8</ele>
        <time>2012-02-11T09:43:44Z</time>
      </trkpt>
      <trkpt lat="59.9775414934" lon="23.4670962819">
        <ele>20.8</ele>
        <time>2012-02-11T09:43:50Z</time>
      </trkpt>
      <trkpt lat="59.9777084609" lon="23.4670093616">
        <ele>20.8</ele>
        <time>2012-02-11T09:43:55Z</time>
      </trkpt>
      <trkpt lat="59.9779123925" lon="23.4669200106">
        <ele>20.8</ele>
        <time>2012-02-11T09:44:01Z</time>
      </trkpt>
      <trkpt lat="59.9782369397" lon="23.4667787756">
        <ele>20.8</ele>
        <time>2012-02-11T09:44:10Z</time>
      </trkpt>
      <trkpt lat="59.9784036557" lon="23.466775339">
        <ele>20.8</ele>
        <time>2012-02-11T09:44:15Z</time>
      </trkpt>
      <trkpt lat="59.9785605648" lon="23.4669620039">
        <ele>20.8</ele>
        <time>2012-02-11T09:44:20Z</time>
      </trkpt>
      <trkpt lat="59.9787025542" lon="23.4671992117">
        <ele>21</ele>
        <time>2012-02-11T09:44:25Z</time>
      </trkpt>
      <trkpt lat="59.9788290371" lon="23.4674601402">
        <ele>21.8</ele>
        <time>2012-02-11T09:44:30Z</time>
      </trkpt>
      <trkpt lat="59.9789461322" lon="23.4677327196">
        <ele>22.2</ele>
        <time>2012-02-11T09:44:35Z</time>
      </trkpt>
      <trkpt lat="59.9790797397" lon="23.4680023653">
        <ele>22.4</ele>
        <time>2012-02-11T09:44:40Z</time>
      </trkpt>
      <trkpt lat="59.9792190469" lon="23.4682347116">
        <ele>22.6</ele>
        <time>2012-02-11T09:44:45Z</time>
      </trkpt>
      <trkpt lat="59.979249557" lon="23.4682862603">
        <ele>22.6</ele>
        <time>2012-02-11T09:44:46Z</time>
      </trkpt>
      <trkpt lat="59.9793559233" lon="23.4684760265">
        <ele>22.6</ele>
        <time>2012-02-11T09:44:50Z</time>
      </trkpt>
      <trkpt lat="59.9794703363" lon="23.4687380447">
        <ele>23</ele>
        <time>2012-02-11T09:44:54Z</time>
      </trkpt>
      <trkpt lat="59.979580223" lon="23.4689273918">
        <ele>23.6</ele>
        <time>2012-02-11T09:44:58Z</time>
      </trkpt>
      <trkpt lat="59.9797129085" lon="23.468886572">
        <ele>24</ele>
        <time>2012-02-11T09:45:03Z</time>
      </trkpt>
      <trkpt lat="59.9798767746" lon="23.4686631105">
        <ele>24.4</ele>
        <time>2012-02-11T09:45:10Z</time>
      </trkpt>
      <trkpt lat="59.9800063588" lon="23.4685247253">
        <ele>24.6</ele>
        <time>2012-02-11T09:45:15Z</time>
      </trkpt>
      <trkpt lat="59.9800170038" lon="23.4684795469">
        <ele>24.6</ele>
        <time>2012-02-11T09:45:16Z</time>
      </trkpt>
      <trkpt lat="59.9801102943" lon="23.4682815664">
        <ele>24.8</ele>
        <time>2012-02-11T09:45:22Z</time>
      </trkpt>
      <trkpt lat="59.9801740806" lon="23.4680855138">
        <ele>24.8</ele>
        <time>2012-02-11T09:45:27Z</time>
      </trkpt>
      <trkpt lat="59.9801988072" lon="23.4680235715">
        <ele>24.8</ele>
        <time>2012-02-11T09:45:28Z</time>
      </trkpt>
      <trkpt lat="59.9802226956" lon="23.4678922272">
        <ele>24.8</ele>
        <time>2012-02-11T09:45:34Z</time>
      </trkpt>
      <trkpt lat="59.9803005635" lon="23.4679150259">
        <ele>25</ele>
        <time>2012-02-11T09:45:37Z</time>
      </trkpt>
      <trkpt lat="59.9803169082" lon="23.4679109188">
        <ele>25.2</ele>
        <time>2012-02-11T09:45:38Z</time>
      </trkpt>
      <trkpt lat="59.9803866456" lon="23.4678418519">
        <ele>25.8</ele>
        <time>2012-02-11T09:45:42Z</time>
      </trkpt>
      <trkpt lat="59.9804074327" lon="23.4678197237">
        <ele>26.2</ele>
        <time>2012-02-11T09:45:47Z</time>
      </trkpt>
      <trkpt lat="59.9804331651" lon="23.4678392535">
        <ele>26.4</ele>
        <time>2012-02-11T09:45:48Z</time>
      </trkpt>
      <trkpt lat="59.9805532778" lon="23.4679571031">
        <ele>27.4</ele>
        <time>2012-02-11T09:45:53Z</time>
      </trkpt>
      <trkpt lat="59.9806287987" lon="23.4678692607">
        <ele>28</ele>
        <time>2012-02-11T09:45:57Z</time>
      </trkpt>
      <trkpt lat="59.9806626616" lon="23.4677405148">
        <ele>28.4</ele>
        <time>2012-02-11T09:46:02Z</time>
      </trkpt>
      <trkpt lat="59.9807380987" lon="23.4676282811">
        <ele>28.6</ele>
        <time>2012-02-11T09:46:08Z</time>
      </trkpt>
      <trkpt lat="59.9807598916" lon="23.4675769839">
        <ele>28.8</ele>
        <time>2012-02-11T09:46:11Z</time>
      </trkpt>
      <trkpt lat="59.9808396873" lon="23.46750842">
        <ele>30</ele>
        <time>2012-02-11T09:46:18Z</time>
      </trkpt>
      <trkpt lat="59.980988466" lon="23.4674733836">
        <ele>30.6</ele>
        <time>2012-02-11T09:46:25Z</time>
      </trkpt>
      <trkpt lat="59.9810728717" lon="23.467415297">
        <ele>30.8</ele>
        <time>2012-02-11T09:46:28Z</time>
      </trkpt>
      <trkpt lat="59.981205641" lon="23.4673830267">
        <ele>30.8</ele>
        <time>2012-02-11T09:46:34Z</time>
      </trkpt>
      <trkpt lat="59.9813383265" lon="23.4674369223">
        <ele>31.6</ele>
        <time>2012-02-11T09:46:39Z</time>
      </trkpt>
      <trkpt lat="59.9814944813" lon="23.4674582962">
        <ele>32.4</ele>
        <time>2012-02-11T09:46:45Z</time>
      </trkpt>
      <trkpt lat="59.9816172761" lon="23.46751303">
        <ele>33</ele>
        <time>2012-02-11T09:46:50Z</time>
      </trkpt>
      <trkpt lat="59.9817405739" lon="23.4674815141">
        <ele>34</ele>
        <time>2012-02-11T09:46:55Z</time>
      </trkpt>
      <trkpt lat="59.9819683101" lon="23.4672319011">
        <ele>35</ele>
        <time>2012-02-11T09:47:08Z</time>
      </trkpt>
      <trkpt lat="59.9820838965" lon="23.4671544523">
        <ele>35.8</ele>
        <time>2012-02-11T09:47:13Z</time>
      </trkpt>
      <trkpt lat="59.9822935278" lon="23.4670335015">
        <ele>36.8</ele>
        <time>2012-02-11T09:47:22Z</time>
      </trkpt>
      <trkpt lat="59.9823055978" lon="23.4670190846">
        <ele>36.8</ele>
        <time>2012-02-11T09:47:23Z</time>
      </trkpt>
      <trkpt lat="59.9823570626" lon="23.4666955433">
        <ele>37</ele>
        <time>2012-02-11T09:47:28Z</time>
      </trkpt>
      <trkpt lat="59.9824081922" lon="23.4667095411">
        <ele>37.2</ele>
        <time>2012-02-11T09:47:32Z</time>
      </trkpt>
      <trkpt lat="59.9824348467" lon="23.4667052663">
        <ele>37.2</ele>
        <time>2012-02-11T09:47:33Z</time>
      </trkpt>
      <trkpt lat="59.9824675361" lon="23.46651089">
        <ele>37.2</ele>
        <time>2012-02-11T09:47:38Z</time>
      </trkpt>
      <trkpt lat="59.9824876526" lon="23.4663799648">
        <ele>37.2</ele>
        <time>2012-02-11T09:47:42Z</time>
      </trkpt>
      <trkpt lat="59.982453203" lon="23.4663376362">
        <ele>37.2</ele>
        <time>2012-02-11T09:47:48Z</time>
      </trkpt>
      <trkpt lat="59.9824446535" lon="23.4663218782">
        <ele>37.2</ele>
        <time>2012-02-11T09:47:49Z</time>
      </trkpt>
      <trkpt lat="59.9824340085" lon="23.4661622868">
        <ele>37.2</ele>
        <time>2012-02-11T09:47:53Z</time>
      </trkpt>
      <trkpt lat="59.9824283926" lon="23.4661206288">
        <ele>37.2</ele>
        <time>2012-02-11T09:47:54Z</time>
      </trkpt>
      <trkpt lat="59.9823527879" lon="23.4658955748">
        <ele>37.2</ele>
        <time>2012-02-11T09:47:59Z</time>
      </trkpt>
      <trkpt lat="59.9822715673" lon="23.4655914794">
        <ele>37.6</ele>
        <time>2012-02-11T09:48:06Z</time>
      </trkpt>
      <trkpt lat="59.9822085354" lon="23.4654051498">
        <ele>38.4</ele>
        <time>2012-02-11T09:48:11Z</time>
      </trkpt>
      <trkpt lat="59.9821460902" lon="23.4652812653">
        <ele>38.8</ele>
        <time>2012-02-11T09:48:17Z</time>
      </trkpt>
      <trkpt lat="59.9821414802" lon="23.4652486597">
        <ele>38.8</ele>
        <time>2012-02-11T09:48:18Z</time>
      </trkpt>
      <trkpt lat="59.9820986487" lon="23.4648717257">
        <ele>39.2</ele>
        <time>2012-02-11T09:48:24Z</time>
      </trkpt>
      <trkpt lat="59.9820442501" lon="23.4644590847">
        <ele>40.2</ele>
        <time>2012-02-11T09:48:30Z</time>
      </trkpt>
      <trkpt lat="59.9819849901" lon="23.4640186997">
        <ele>40.8</ele>
        <time>2012-02-11T09:48:36Z</time>
      </trkpt>
      <trkpt lat="59.9819328547" lon="23.4636571884">
        <ele>41</ele>
        <time>2012-02-11T09:48:41Z</time>
      </trkpt>
      <trkpt lat="59.9818902746" lon="23.4632848644">
        <ele>41.2</ele>
        <time>2012-02-11T09:48:46Z</time>
      </trkpt>
      <trkpt lat="59.9818390612" lon="23.462932154">
        <ele>41.2</ele>
        <time>2012-02-11T09:48:51Z</time>
      </trkpt>
      <trkpt lat="59.9817878478" lon="23.4625772644">
        <ele>41.2</ele>
        <time>2012-02-11T09:48:56Z</time>
      </trkpt>
      <trkpt lat="59.9817367182" lon="23.4622263142">
        <ele>41.4</ele>
        <time>2012-02-11T09:49:01Z</time>
      </trkpt>
      <trkpt lat="59.9816845828" lon="23.461855499">
        <ele>40.6</ele>
        <time>2012-02-11T09:49:06Z</time>
      </trkpt>
      <trkpt lat="59.9816267477" lon="23.4614626393">
        <ele>40</ele>
        <time>2012-02-11T09:49:12Z</time>
      </trkpt>
      <trkpt lat="59.9815762048" lon="23.461066846">
        <ele>39.4</ele>
        <time>2012-02-11T09:49:17Z</time>
      </trkpt>
      <trkpt lat="59.9815180344" lon="23.4606664426">
        <ele>38.4</ele>
        <time>2012-02-11T09:49:23Z</time>
      </trkpt>
      <trkpt lat="59.9814721016" lon="23.4603000698">
        <ele>38</ele>
        <time>2012-02-11T09:49:28Z</time>
      </trkpt>
      <trkpt lat="59.9814324552" lon="23.4599740977">
        <ele>37.6</ele>
        <time>2012-02-11T09:49:33Z</time>
      </trkpt>
      <trkpt lat="59.9815504724" lon="23.4598988282">
        <ele>37</ele>
        <time>2012-02-11T09:49:37Z</time>
      </trkpt>
      <trkpt lat="59.9815684935" lon="23.4599001693">
        <ele>36.8</ele>
        <time>2012-02-11T09:49:38Z</time>
      </trkpt>
      <trkpt lat="59.9816946411" lon="23.4598368022">
        <ele>36.4</ele>
        <time>2012-02-11T09:49:41Z</time>
      </trkpt>
      <trkpt lat="59.9818693199" lon="23.4597373928">
        <ele>35</ele>
        <time>2012-02-11T09:49:46Z</time>
      </trkpt>
      <trkpt lat="59.9820248879" lon="23.45962013">
        <ele>34.2</ele>
        <time>2012-02-11T09:49:51Z</time>
      </trkpt>
      <trkpt lat="59.9821916039" lon="23.4594845109">
        <ele>33.2</ele>
        <time>2012-02-11T09:49:56Z</time>
      </trkpt>
      <trkpt lat="59.9823291509" lon="23.4592929845">
        <ele>32</ele>
        <time>2012-02-11T09:50:02Z</time>
      </trkpt>
      <trkpt lat="59.9823427296" lon="23.4592672521">
        <ele>32</ele>
        <time>2012-02-11T09:50:03Z</time>
      </trkpt>
      <trkpt lat="59.9823604992" lon="23.4592022923">
        <ele>31.6</ele>
        <time>2012-02-11T09:50:07Z</time>
      </trkpt>
      <trkpt lat="59.9823874051" lon="23.4591725366">
        <ele>31.2</ele>
        <time>2012-02-11T09:50:14Z</time>
      </trkpt>
      <trkpt lat="59.9823663665" lon="23.4590627337">
        <ele>30.6</ele>
        <time>2012-02-11T09:50:25Z</time>
      </trkpt>
      <trkpt lat="59.9823264687" lon="23.4588457263">
        <ele>29.8</ele>
        <time>2012-02-11T09:50:30Z</time>
      </trkpt>
      <trkpt lat="59.982261509" lon="23.4585326623">
        <ele>29.4</ele>
        <time>2012-02-11T09:50:35Z</time>
      </trkpt>
      <trkpt lat="59.9822376206" lon="23.4582835523">
        <ele>29.2</ele>
        <time>2012-02-11T09:50:38Z</time>
      </trkpt>
      <trkpt lat="59.9823401312" lon="23.4580491943">
        <ele>29.2</ele>
        <time>2012-02-11T09:50:43Z</time>
      </trkpt>
      <trkpt lat="59.9824905863" lon="23.4578299238">
        <ele>29</ele>
        <time>2012-02-11T09:50:48Z</time>
      </trkpt>
      <trkpt lat="59.9826339168" lon="23.4576030258">
        <ele>29</ele>
        <time>2012-02-11T09:50:53Z</time>
      </trkpt>
      <trkpt lat="59.9827782531" lon="23.4573206396">
        <ele>29</ele>
        <time>2012-02-11T09:50:58Z</time>
      </trkpt>
      <trkpt lat="59.9828429614" lon="23.4569764788">
        <ele>28.8</ele>
        <time>2012-02-11T09:51:04Z</time>
      </trkpt>
      <trkpt lat="59.9827504252" lon="23.4566830285">
        <ele>28.4</ele>
        <time>2012-02-11T09:51:09Z</time>
      </trkpt>
      <trkpt lat="59.9826298097" lon="23.4564017319">
        <ele>27.8</ele>
        <time>2012-02-11T09:51:14Z</time>
      </trkpt>
      <trkpt lat="59.9825301489" lon="23.4561019113">
        <ele>27.4</ele>
        <time>2012-02-11T09:51:19Z</time>
      </trkpt>
      <trkpt lat="59.9825116249" lon="23.4558271527">
        <ele>27.2</ele>
        <time>2012-02-11T09:51:23Z</time>
      </trkpt>
      <trkpt lat="59.9824497664" lon="23.4554960676">
        <ele>27</ele>
        <time>2012-02-11T09:51:28Z</time>
      </trkpt>
      <trkpt lat="59.982377263" lon="23.4552122565">
        <ele>27</ele>
        <time>2012-02-11T09:51:33Z</time>
      </trkpt>
      <trkpt lat="59.9822579886" lon="23.4550299501">
        <ele>26.8</ele>
        <time>2012-02-11T09:51:37Z</time>
      </trkpt>
      <trkpt lat="59.982148018" lon="23.4547882162">
        <ele>26.8</ele>
        <time>2012-02-11T09:51:43Z</time>
      </trkpt>
      <trkpt lat="59.9820814658" lon="23.4547261901">
        <ele>26.8</ele>
        <time>2012-02-11T09:51:47Z</time>
      </trkpt>
      <trkpt lat="59.982064702" lon="23.4546696123">
        <ele>26.8</ele>
        <time>2012-02-11T09:51:50Z</time>
      </trkpt>
      <trkpt lat="59.9821137361" lon="23.4543870584">
        <ele>26.8</ele>
        <time>2012-02-11T09:51:58Z</time>
      </trkpt>
      <trkpt lat="59.9823895844" lon="23.4542391179">
        <ele>26.2</ele>
        <time>2012-02-11T09:52:11Z</time>
      </trkpt>
      <trkpt lat="59.982407354" lon="23.4542317418">
        <ele>26</ele>
        <time>2012-02-11T09:52:12Z</time>
      </trkpt>
      <trkpt lat="59.9824211842" lon="23.4542275509">
        <ele>25.8</ele>
        <time>2012-02-11T09:52:13Z</time>
      </trkpt>
      <trkpt lat="59.9824788516" lon="23.4541856414">
        <ele>25.4</ele>
        <time>2012-02-11T09:52:18Z</time>
      </trkpt>
      <trkpt lat="59.9825796021" lon="23.4540767605">
        <ele>24.4</ele>
        <time>2012-02-11T09:52:24Z</time>
      </trkpt>
      <trkpt lat="59.9825766684" lon="23.4540766767">
        <ele>24.2</ele>
        <time>2012-02-11T09:52:25Z</time>
      </trkpt>
      <trkpt lat="59.9825799374" lon="23.4540558057">
        <ele>24</ele>
        <time>2012-02-11T09:52:26Z</time>
      </trkpt>
      <trkpt lat="59.9825863914" lon="23.4540173328">
        <ele>23.8</ele>
        <time>2012-02-11T09:52:27Z</time>
      </trkpt>
      <trkpt lat="59.982585218" lon="23.4539998985">
        <ele>23.6</ele>
        <time>2012-02-11T09:52:30Z</time>
      </trkpt>
      <trkpt lat="59.9824931009" lon="23.4538059413">
        <ele>22.4</ele>
        <time>2012-02-11T09:52:35Z</time>
      </trkpt>
      <trkpt lat="59.9823547995" lon="23.4534956434">
        <ele>21.6</ele>
        <time>2012-02-11T09:52:41Z</time>
      </trkpt>
      <trkpt lat="59.9822761773" lon="23.4531692522">
        <ele>21</ele>
        <time>2012-02-11T09:52:46Z</time>
      </trkpt>
      <trkpt lat="59.9822041768" lon="23.4528255104">
        <ele>20.8</ele>
        <time>2012-02-11T09:52:51Z</time>
      </trkpt>
      <trkpt lat="59.9821257222" lon="23.452376995">
        <ele>20.6</ele>
        <time>2012-02-11T09:52:57Z</time>
      </trkpt>
      <trkpt lat="59.9820097167" lon="23.4521008114">
        <ele>20.6</ele>
        <time>2012-02-11T09:53:03Z</time>
      </trkpt>
      <trkpt lat="59.9818284162" lon="23.45218111">
        <ele>21.4</ele>
        <time>2012-02-11T09:53:09Z</time>
      </trkpt>
      <trkpt lat="59.9816389853" lon="23.452305665">
        <ele>22</ele>
        <time>2012-02-11T09:53:15Z</time>
      </trkpt>
      <trkpt lat="59.9814609537" lon="23.4524161385">
        <ele>22.2</ele>
        <time>2012-02-11T09:53:20Z</time>
      </trkpt>
      <trkpt lat="59.981327933" lon="23.4525063277">
        <ele>22.2</ele>
        <time>2012-02-11T09:53:24Z</time>
      </trkpt>
      <trkpt lat="59.981126013" lon="23.4526370853">
        <ele>22.4</ele>
        <time>2012-02-11T09:53:30Z</time>
      </trkpt>
      <trkpt lat="59.9809587941" lon="23.4526981894">
        <ele>22.4</ele>
        <time>2012-02-11T09:53:35Z</time>
      </trkpt>
      <trkpt lat="59.9807598078" lon="23.452771531">
        <ele>22.4</ele>
        <time>2012-02-11T09:53:41Z</time>
      </trkpt>
      <trkpt lat="59.980682359" lon="23.4527960062">
        <ele>22.6</ele>
        <time>2012-02-11T09:53:44Z</time>
      </trkpt>
      <trkpt lat="59.980546237" lon="23.4530328787">
        <ele>23.6</ele>
        <time>2012-02-11T09:53:51Z</time>
      </trkpt>
      <trkpt lat="59.9804531979" lon="23.4531555059">
        <ele>24</ele>
        <time>2012-02-11T09:53:55Z</time>
      </trkpt>
      <trkpt lat="59.9803354322" lon="23.4533016862">
        <ele>24.2</ele>
        <time>2012-02-11T09:54:00Z</time>
      </trkpt>
      <trkpt lat="59.9801931913" lon="23.4533657239">
        <ele>24.4</ele>
        <time>2012-02-11T09:54:05Z</time>
      </trkpt>
      <trkpt lat="59.9800228711" lon="23.4535041929">
        <ele>24.4</ele>
        <time>2012-02-11T09:54:12Z</time>
      </trkpt>
      <trkpt lat="59.9798567419" lon="23.4536433324">
        <ele>25</ele>
        <time>2012-02-11T09:54:19Z</time>
      </trkpt>
      <trkpt lat="59.9796818954" lon="23.4537891775">
        <ele>25.8</ele>
        <time>2012-02-11T09:54:25Z</time>
      </trkpt>
      <trkpt lat="59.9794952305" lon="23.453928317">
        <ele>26.2</ele>
        <time>2012-02-11T09:54:31Z</time>
      </trkpt>
      <trkpt lat="59.9793752855" lon="23.4539223659">
        <ele>26.2</ele>
        <time>2012-02-11T09:54:34Z</time>
      </trkpt>
      <trkpt lat="59.9792477968" lon="23.4539659518">
        <ele>26.4</ele>
        <time>2012-02-11T09:54:39Z</time>
      </trkpt>
      <trkpt lat="59.979093989" lon="23.4540734077">
        <ele>26.4</ele>
        <time>2012-02-11T09:54:44Z</time>
      </trkpt>
      <trkpt lat="59.9789100901" lon="23.4542212644">
        <ele>26.4</ele>
        <time>2012-02-11T09:54:50Z</time>
      </trkpt>
      <trkpt lat="59.9787423683" lon="23.4543554587">
        <ele>27.2</ele>
        <time>2012-02-11T09:54:55Z</time>
      </trkpt>
      <trkpt lat="59.9785514286" lon="23.4544955202">
        <ele>28</ele>
        <time>2012-02-11T09:55:02Z</time>
      </trkpt>
      <trkpt lat="59.9784666038" lon="23.454507674">
        <ele>28.2</ele>
        <time>2012-02-11T09:55:05Z</time>
      </trkpt>
      <trkpt lat="59.9783486704" lon="23.4541596575">
        <ele>29</ele>
        <time>2012-02-11T09:55:11Z</time>
      </trkpt>
      <trkpt lat="59.9783321581" lon="23.454086232">
        <ele>29.2</ele>
        <time>2012-02-11T09:55:12Z</time>
      </trkpt>
      <trkpt lat="59.9782423041" lon="23.453751878">
        <ele>29.8</ele>
        <time>2012-02-11T09:55:17Z</time>
      </trkpt>
      <trkpt lat="59.9781734887" lon="23.4534026043">
        <ele>30.8</ele>
        <time>2012-02-11T09:55:23Z</time>
      </trkpt>
      <trkpt lat="59.9781148154" lon="23.4530682503">
        <ele>31.6</ele>
        <time>2012-02-11T09:55:28Z</time>
      </trkpt>
      <trkpt lat="59.9780924357" lon="23.4529376603">
        <ele>31.8</ele>
        <time>2012-02-11T09:55:30Z</time>
      </trkpt>
      <trkpt lat="59.9780421443" lon="23.4526955072">
        <ele>32.2</ele>
        <time>2012-02-11T09:55:34Z</time>
      </trkpt>
      <trkpt lat="59.9779701438" lon="23.4523147175">
        <ele>32.6</ele>
        <time>2012-02-11T09:55:40Z</time>
      </trkpt>
      <trkpt lat="59.9779092074" lon="23.4519760049">
        <ele>32.6</ele>
        <time>2012-02-11T09:55:45Z</time>
      </trkpt>
      <trkpt lat="59.9778432418" lon="23.4516441655">
        <ele>33.2</ele>
        <time>2012-02-11T09:55:50Z</time>
      </trkpt>
      <trkpt lat="59.9777789527" lon="23.4513456022">
        <ele>34</ele>
        <time>2012-02-11T09:55:54Z</time>
      </trkpt>
      <trkpt lat="59.9777511248" lon="23.4511990028">
        <ele>34.2</ele>
        <time>2012-02-11T09:55:57Z</time>
      </trkpt>
      <trkpt lat="59.9777216205" lon="23.4511478732">
        <ele>34.2</ele>
        <time>2012-02-11T09:55:58Z</time>
      </trkpt>
      <trkpt lat="59.9776500391" lon="23.4513398187">
        <ele>34.6</ele>
        <time>2012-02-11T09:56:04Z</time>
      </trkpt>
      <trkpt lat="59.9775741829" lon="23.4516123142">
        <ele>34.6</ele>
        <time>2012-02-11T09:56:09Z</time>
      </trkpt>
      <trkpt lat="59.9775523899" lon="23.4516690597">
        <ele>34.6</ele>
        <time>2012-02-11T09:56:10Z</time>
      </trkpt>
      <trkpt lat="59.9774072154" lon="23.4518485162">
        <ele>34.8</ele>
        <time>2012-02-11T09:56:16Z</time>
      </trkpt>
      <trkpt lat="59.9773674014" lon="23.4522474108">
        <ele>34.8</ele>
        <time>2012-02-11T09:56:23Z</time>
      </trkpt>
      <trkpt lat="59.9773475363" lon="23.4526425336">
        <ele>34.8</ele>
        <time>2012-02-11T09:56:28Z</time>
      </trkpt>
      <trkpt lat="59.9773052077" lon="23.4529832578">
        <ele>34.8</ele>
        <time>2012-02-11T09:56:34Z</time>
      </trkpt>
      <trkpt lat="59.9772358894" lon="23.4533653886">
        <ele>34.8</ele>
        <time>2012-02-11T09:56:40Z</time>
      </trkpt>
      <trkpt lat="59.9771097418" lon="23.4536476072">
        <ele>34.8</ele>
        <time>2012-02-11T09:56:46Z</time>
      </trkpt>
      <trkpt lat="59.9769866117" lon="23.4539688854">
        <ele>34.8</ele>
        <time>2012-02-11T09:56:52Z</time>
      </trkpt>
      <trkpt lat="59.9768830952" lon="23.454267784">
        <ele>34.8</ele>
        <time>2012-02-11T09:56:57Z</time>
      </trkpt>
      <trkpt lat="59.9766151259" lon="23.454713282">
        <ele>33.8</ele>
        <time>2012-02-11T09:57:10Z</time>
      </trkpt>
      <trkpt lat="59.9764365076" lon="23.4548345681">
        <ele>33.4</ele>
        <time>2012-02-11T09:57:15Z</time>
      </trkpt>
      <trkpt lat="59.9762389462" lon="23.4549452091">
        <ele>33.2</ele>
        <time>2012-02-11T09:57:20Z</time>
      </trkpt>
      <trkpt lat="59.9760674525" lon="23.4550310398">
        <ele>32.6</ele>
        <time>2012-02-11T09:57:25Z</time>
      </trkpt>
      <trkpt lat="59.9758735792" lon="23.4551472129">
        <ele>31.8</ele>
        <time>2012-02-11T09:57:31Z</time>
      </trkpt>
      <trkpt lat="59.9757023369" lon="23.4552327921">
        <ele>31.4</ele>
        <time>2012-02-11T09:57:36Z</time>
      </trkpt>
      <trkpt lat="59.9755600123" lon="23.4555346243">
        <ele>31</ele>
        <time>2012-02-11T09:57:42Z</time>
      </trkpt>
      <trkpt lat="59.9754708289" lon="23.4559044338">
        <ele>31</ele>
        <time>2012-02-11T09:57:48Z</time>
      </trkpt>
      <trkpt lat="59.975430931" lon="23.4561573995">
        <ele>30.8</ele>
        <time>2012-02-11T09:57:52Z</time>
      </trkpt>
      <trkpt lat="59.9753126624" lon="23.4568081702">
        <ele>30.2</ele>
        <time>2012-02-11T09:58:02Z</time>
      </trkpt>
      <trkpt lat="59.975268406" lon="23.4570267702">
        <ele>29.6</ele>
        <time>2012-02-11T09:58:05Z</time>
      </trkpt>
      <trkpt lat="59.9751550827" lon="23.4575947277">
        <ele>29.2</ele>
        <time>2012-02-11T09:58:14Z</time>
      </trkpt>
      <trkpt lat="59.9750726048" lon="23.4579176823">
        <ele>29</ele>
        <time>2012-02-11T09:58:19Z</time>
      </trkpt>
      <trkpt lat="59.9749970001" lon="23.458228567">
        <ele>28.8</ele>
        <time>2012-02-11T09:58:24Z</time>
      </trkpt>
      <trkpt lat="59.9749310345" lon="23.4586168166">
        <ele>28.8</ele>
        <time>2012-02-11T09:58:30Z</time>
      </trkpt>
      <trkpt lat="59.9748598722" lon="23.4589825189">
        <ele>28.8</ele>
        <time>2012-02-11T09:58:36Z</time>
      </trkpt>
      <trkpt lat="59.9747850218" lon="23.4593414319">
        <ele>28.8</ele>
        <time>2012-02-11T09:58:42Z</time>
      </trkpt>
      <trkpt lat="59.9747391728" lon="23.4596518974">
        <ele>28.8</ele>
        <time>2012-02-11T09:58:47Z</time>
      </trkpt>
      <trkpt lat="59.974668681" lon="23.4600312622">
        <ele>28.8</ele>
        <time>2012-02-11T09:58:53Z</time>
      </trkpt>
      <trkpt lat="59.9746039728" lon="23.4603676279">
        <ele>28.8</ele>
        <time>2012-02-11T09:58:59Z</time>
      </trkpt>
      <trkpt lat="59.9745568665" lon="23.4607875611">
        <ele>28.8</ele>
        <time>2012-02-11T09:59:05Z</time>
      </trkpt>
      <trkpt lat="59.9744169726" lon="23.4609370104">
        <ele>28.8</ele>
        <time>2012-02-11T09:59:11Z</time>
      </trkpt>
      <trkpt lat="59.974249586" lon="23.461020997">
        <ele>28.8</ele>
        <time>2012-02-11T09:59:17Z</time>
      </trkpt>
      <trkpt lat="59.9740477499" lon="23.4611038102">
        <ele>28.8</ele>
        <time>2012-02-11T09:59:24Z</time>
      </trkpt>
      <trkpt lat="59.9738651921" lon="23.4611655009">
        <ele>29</ele>
        <time>2012-02-11T09:59:29Z</time>
      </trkpt>
      <trkpt lat="59.9737375358" lon="23.4611518385">
        <ele>29.6</ele>
        <time>2012-02-11T09:59:33Z</time>
      </trkpt>
      <trkpt lat="59.9736784434" lon="23.461147396">
        <ele>30</ele>
        <time>2012-02-11T09:59:36Z</time>
      </trkpt>
      <trkpt lat="59.9735263119" lon="23.4610660078">
        <ele>30.6</ele>
        <time>2012-02-11T09:59:43Z</time>
      </trkpt>
      <trkpt lat="59.9733857474" lon="23.461045053">
        <ele>31.6</ele>
        <time>2012-02-11T09:59:49Z</time>
      </trkpt>
      <trkpt lat="59.9733663014" lon="23.461051088">
        <ele>31.8</ele>
        <time>2012-02-11T09:59:50Z</time>
      </trkpt>
      <trkpt lat="59.9733064547" lon="23.4610760661">
        <ele>32.2</ele>
        <time>2012-02-11T09:59:53Z</time>
      </trkpt>
      <trkpt lat="59.9732876792" lon="23.4608992918">
        <ele>32.8</ele>
        <time>2012-02-11T09:59:59Z</time>
      </trkpt>
      <trkpt lat="59.9732885174" lon="23.4607510998">
        <ele>33.6</ele>
        <time>2012-02-11T10:00:02Z</time>
      </trkpt>
      <trkpt lat="59.9732854161" lon="23.4606822844">
        <ele>33.8</ele>
        <time>2012-02-11T10:00:03Z</time>
      </trkpt>
      <trkpt lat="59.9732147567" lon="23.4605106231">
        <ele>34.2</ele>
        <time>2012-02-11T10:00:08Z</time>
      </trkpt>
      <trkpt lat="59.9732036087" lon="23.4604918476">
        <ele>34.8</ele>
        <time>2012-02-11T10:00:10Z</time>
      </trkpt>
      <trkpt lat="59.9731983281" lon="23.4602330146">
        <ele>36</ele>
        <time>2012-02-11T10:00:18Z</time>
      </trkpt>
      <trkpt lat="59.9732041955" lon="23.4601596729">
        <ele>36.2</ele>
        <time>2012-02-11T10:00:20Z</time>
      </trkpt>
      <trkpt lat="59.9732104819" lon="23.4600860799">
        <ele>36.4</ele>
        <time>2012-02-11T10:00:22Z</time>
      </trkpt>
      <trkpt lat="59.9732197858" lon="23.4598728443">
        <ele>36.6</ele>
        <time>2012-02-11T10:00:26Z</time>
      </trkpt>
      <trkpt lat="59.9732338674" lon="23.4598105668">
        <ele>36.6</ele>
        <time>2012-02-11T10:00:28Z</time>
      </trkpt>
      <trkpt lat="59.9732660539" lon="23.4594902106">
        <ele>36.8</ele>
        <time>2012-02-11T10:00:34Z</time>
      </trkpt>
      <trkpt lat="59.973267395" lon="23.4594157793">
        <ele>36.8</ele>
        <time>2012-02-11T10:00:36Z</time>
      </trkpt>
      <trkpt lat="59.9732145052" lon="23.4593420186">
        <ele>37</ele>
        <time>2012-02-11T10:00:39Z</time>
      </trkpt>
      <trkpt lat="59.9731912035" lon="23.4591319682">
        <ele>37</ele>
        <time>2012-02-11T10:00:44Z</time>
      </trkpt>
      <trkpt lat="59.9731570892" lon="23.4589179783">
        <ele>37</ele>
        <time>2012-02-11T10:00:50Z</time>
      </trkpt>
      <trkpt lat="59.9731572568" lon="23.458862071">
        <ele>37</ele>
        <time>2012-02-11T10:00:51Z</time>
      </trkpt>
      <trkpt lat="59.9731567539" lon="23.458807421">
        <ele>37</ele>
        <time>2012-02-11T10:00:53Z</time>
      </trkpt>
      <trkpt lat="59.9732233062" lon="23.4585974544">
        <ele>36.8</ele>
        <time>2012-02-11T10:00:59Z</time>
      </trkpt>
      <trkpt lat="59.9732719212" lon="23.4584038325">
        <ele>36</ele>
        <time>2012-02-11T10:01:03Z</time>
      </trkpt>
      <trkpt lat="59.9733193628" lon="23.458037795">
        <ele>34.4</ele>
        <time>2012-02-11T10:01:09Z</time>
      </trkpt>
      <trkpt lat="59.9733736775" lon="23.4577036924">
        <ele>32.8</ele>
        <time>2012-02-11T10:01:14Z</time>
      </trkpt>
      <trkpt lat="59.9734382181" lon="23.4573695061">
        <ele>31.6</ele>
        <time>2012-02-11T10:01:19Z</time>
      </trkpt>
      <trkpt lat="59.9735087099" lon="23.4570307097">
        <ele>30.2</ele>
        <time>2012-02-11T10:01:24Z</time>
      </trkpt>
      <trkpt lat="59.973581381" lon="23.4566567931">
        <ele>29.2</ele>
        <time>2012-02-11T10:01:30Z</time>
      </trkpt>
      <trkpt lat="59.9736546388" lon="23.4562497681">
        <ele>27.8</ele>
        <time>2012-02-11T10:01:36Z</time>
      </trkpt>
      <trkpt lat="59.9736632721" lon="23.4561495205">
        <ele>27.6</ele>
        <time>2012-02-11T10:01:38Z</time>
      </trkpt>
      <trkpt lat="59.9736384617" lon="23.4560398015">
        <ele>27.2</ele>
        <time>2012-02-11T10:01:40Z</time>
      </trkpt>
      <trkpt lat="59.9735062791" lon="23.4559097982">
        <ele>26.8</ele>
        <time>2012-02-11T10:01:44Z</time>
      </trkpt>
      <trkpt lat="59.9732794649" lon="23.4557354547">
        <ele>25.8</ele>
        <time>2012-02-11T10:01:51Z</time>
      </trkpt>
      <trkpt lat="59.9731027745" lon="23.4556060381">
        <ele>25</ele>
        <time>2012-02-11T10:01:57Z</time>
      </trkpt>
      <trkpt lat="59.9729426802" lon="23.4554887754">
        <ele>24.6</ele>
        <time>2012-02-11T10:02:02Z</time>
      </trkpt>
      <trkpt lat="59.9727432748" lon="23.4553570957">
        <ele>24.2</ele>
        <time>2012-02-11T10:02:08Z</time>
      </trkpt>
      <trkpt lat="59.9725353199" lon="23.4551972529">
        <ele>23.2</ele>
        <time>2012-02-11T10:02:14Z</time>
      </trkpt>
      <trkpt lat="59.9723558634" lon="23.4550391702">
        <ele>22.6</ele>
        <time>2012-02-11T10:02:20Z</time>
      </trkpt>
      <trkpt lat="59.9721845373" lon="23.4549017909">
        <ele>22.4</ele>
        <time>2012-02-11T10:02:25Z</time>
      </trkpt>
      <trkpt lat="59.9719965313" lon="23.4547876294">
        <ele>22.2</ele>
        <time>2012-02-11T10:02:30Z</time>
      </trkpt>
      <trkpt lat="59.9718060946" lon="23.4547287885">
        <ele>22.2</ele>
        <time>2012-02-11T10:02:35Z</time>
      </trkpt>
      <trkpt lat="59.9717330044" lon="23.4547023855">
        <ele>22</ele>
        <time>2012-02-11T10:02:37Z</time>
      </trkpt>
      <trkpt lat="59.9716732414" lon="23.4544069235">
        <ele>22</ele>
        <time>2012-02-11T10:02:42Z</time>
      </trkpt>
      <trkpt lat="59.9716288174" lon="23.4540440711">
        <ele>22</ele>
        <time>2012-02-11T10:02:47Z</time>
      </trkpt>
      <trkpt lat="59.9715877461" lon="23.4536119003">
        <ele>22</ele>
        <time>2012-02-11T10:02:53Z</time>
      </trkpt>
      <trkpt lat="59.9715271449" lon="23.4532250756">
        <ele>22</ele>
        <time>2012-02-11T10:02:59Z</time>
      </trkpt>
      <trkpt lat="59.9714872471" lon="23.4531707609">
        <ele>22</ele>
        <time>2012-02-11T10:03:01Z</time>
      </trkpt>
      <trkpt lat="59.9713646199" lon="23.4532183701">
        <ele>22</ele>
        <time>2012-02-11T10:03:05Z</time>
      </trkpt>
      <trkpt lat="59.9711521387" lon="23.4533234791">
        <ele>22</ele>
        <time>2012-02-11T10:03:11Z</time>
      </trkpt>
      <trkpt lat="59.9709730175" lon="23.4534119082">
        <ele>22</ele>
        <time>2012-02-11T10:03:16Z</time>
      </trkpt>
      <trkpt lat="59.9708104925" lon="23.4534936317">
        <ele>22</ele>
        <time>2012-02-11T10:03:20Z</time>
      </trkpt>
      <trkpt lat="59.9707557587" lon="23.4534855013">
        <ele>22</ele>
        <time>2012-02-11T10:03:22Z</time>
      </trkpt>
      <trkpt lat="59.9706757115" lon="23.4530681665">
        <ele>21.4</ele>
        <time>2012-02-11T10:03:28Z</time>
      </trkpt>
      <trkpt lat="59.9706367357" lon="23.4526763126">
        <ele>20.8</ele>
        <time>2012-02-11T10:03:33Z</time>
      </trkpt>
      <trkpt lat="59.9705881207" lon="23.4523127896">
        <ele>20.4</ele>
        <time>2012-02-11T10:03:38Z</time>
      </trkpt>
      <trkpt lat="59.9705716921" lon="23.4520275536">
        <ele>20.2</ele>
        <time>2012-02-11T10:03:42Z</time>
      </trkpt>
      <trkpt lat="59.9707202194" lon="23.4518606699">
        <ele>20.2</ele>
        <time>2012-02-11T10:03:47Z</time>
      </trkpt>
      <trkpt lat="59.9709365562" lon="23.4517090414">
        <ele>20</ele>
        <time>2012-02-11T10:03:53Z</time>
      </trkpt>
      <trkpt lat="59.971169154" lon="23.4515216221">
        <ele>20</ele>
        <time>2012-02-11T10:04:02Z</time>
      </trkpt>
      <trkpt lat="59.9711756919" lon="23.4514812213">
        <ele>20</ele>
        <time>2012-02-11T10:04:04Z</time>
      </trkpt>
      <trkpt lat="59.9712455131" lon="23.4515678902">
        <ele>19.8</ele>
        <time>2012-02-11T10:04:09Z</time>
      </trkpt>
      <trkpt lat="59.9712630313" lon="23.4515631125">
        <ele>19.6</ele>
        <time>2012-02-11T10:04:10Z</time>
      </trkpt>
      <trkpt lat="59.9714107203" lon="23.4514839035">
        <ele>19</ele>
        <time>2012-02-11T10:04:14Z</time>
      </trkpt>
      <trkpt lat="59.9715783583" lon="23.4514025153">
        <ele>18.6</ele>
        <time>2012-02-11T10:04:19Z</time>
      </trkpt>
      <trkpt lat="59.971776255" lon="23.4512832408">
        <ele>18.2</ele>
        <time>2012-02-11T10:04:25Z</time>
      </trkpt>
      <trkpt lat="59.9719804381" lon="23.4511964882">
        <ele>18</ele>
        <time>2012-02-11T10:04:31Z</time>
      </trkpt>
      <trkpt lat="59.972181436" lon="23.4511376472">
        <ele>18</ele>
        <time>2012-02-11T10:04:37Z</time>
      </trkpt>
      <trkpt lat="59.9722132873" lon="23.4511522318">
        <ele>18</ele>
        <time>2012-02-11T10:04:38Z</time>
      </trkpt>
      <trkpt lat="59.9722619861" lon="23.4512135873">
        <ele>18</ele>
        <time>2012-02-11T10:04:40Z</time>
      </trkpt>
      <trkpt lat="59.9723266105" lon="23.4515750148">
        <ele>18</ele>
        <time>2012-02-11T10:04:45Z</time>
      </trkpt>
      <trkpt lat="59.9723719566" lon="23.4519854764">
        <ele>18</ele>
        <time>2012-02-11T10:04:51Z</time>
      </trkpt>
      <trkpt lat="59.9724033887" lon="23.4523531066">
        <ele>18</ele>
        <time>2012-02-11T10:04:56Z</time>
      </trkpt>
      <trkpt lat="59.9724377545" lon="23.4525779929">
        <ele>17.8</ele>
        <time>2012-02-11T10:05:00Z</time>
      </trkpt>
      <trkpt lat="59.9727131838" lon="23.4525473152">
        <ele>17.8</ele>
        <time>2012-02-11T10:05:09Z</time>
      </trkpt>
      <trkpt lat="59.9728946519" lon="23.4524767396">
        <ele>17.8</ele>
        <time>2012-02-11T10:05:14Z</time>
      </trkpt>
      <trkpt lat="59.9731022716" lon="23.4523796772">
        <ele>17.8</ele>
        <time>2012-02-11T10:05:20Z</time>
      </trkpt>
      <trkpt lat="59.9733093045" lon="23.4523068385">
        <ele>17.8</ele>
        <time>2012-02-11T10:05:26Z</time>
      </trkpt>
      <trkpt lat="59.9734815525" lon="23.4522017294">
        <ele>18</ele>
        <time>2012-02-11T10:05:31Z</time>
      </trkpt>
      <trkpt lat="59.973682299" lon="23.4520683734">
        <ele>19</ele>
        <time>2012-02-11T10:05:37Z</time>
      </trkpt>
      <trkpt lat="59.973847171" lon="23.4519802797">
        <ele>19.4</ele>
        <time>2012-02-11T10:05:42Z</time>
      </trkpt>
      <trkpt lat="59.9739677866" lon="23.451916661">
        <ele>19.6</ele>
        <time>2012-02-11T10:05:46Z</time>
      </trkpt>
      <trkpt lat="59.9741360951" lon="23.451541571">
        <ele>19.8</ele>
        <time>2012-02-11T10:05:53Z</time>
      </trkpt>
      <trkpt lat="59.9742689482" lon="23.4513093924">
        <ele>19.8</ele>
        <time>2012-02-11T10:05:58Z</time>
      </trkpt>
      <trkpt lat="59.9743520129" lon="23.451263711">
        <ele>20</ele>
        <time>2012-02-11T10:06:00Z</time>
      </trkpt>
      <trkpt lat="59.9745986922" lon="23.4512136711">
        <ele>20.8</ele>
        <time>2012-02-11T10:06:08Z</time>
      </trkpt>
      <trkpt lat="59.9746276936" lon="23.45120026">
        <ele>21</ele>
        <time>2012-02-11T10:06:09Z</time>
      </trkpt>
      <trkpt lat="59.974674716" lon="23.4511581829">
        <ele>21.2</ele>
        <time>2012-02-11T10:06:11Z</time>
      </trkpt>
      <trkpt lat="59.9749110856" lon="23.451021977">
        <ele>21.6</ele>
        <time>2012-02-11T10:06:17Z</time>
      </trkpt>
      <trkpt lat="59.9751382351" lon="23.4508714381">
        <ele>21.8</ele>
        <time>2012-02-11T10:06:23Z</time>
      </trkpt>
      <trkpt lat="59.9752289272" lon="23.45071587">
        <ele>21.8</ele>
        <time>2012-02-11T10:06:26Z</time>
      </trkpt>
      <trkpt lat="59.9752505525" lon="23.4506375831">
        <ele>21.8</ele>
        <time>2012-02-11T10:06:27Z</time>
      </trkpt>
      <trkpt lat="59.9752718426" lon="23.4504466434">
        <ele>21.8</ele>
        <time>2012-02-11T10:06:29Z</time>
      </trkpt>
      <trkpt lat="59.9753427534" lon="23.4501710465">
        <ele>21.8</ele>
        <time>2012-02-11T10:06:32Z</time>
      </trkpt>
      <trkpt lat="59.9753915361" lon="23.4501348367">
        <ele>21.8</ele>
        <time>2012-02-11T10:06:33Z</time>
      </trkpt>
      <trkpt lat="59.9755400634" lon="23.4500302306">
        <ele>22.4</ele>
        <time>2012-02-11T10:06:37Z</time>
      </trkpt>
      <trkpt lat="59.9755378003" lon="23.4500386963">
        <ele>23</ele>
        <time>2012-02-11T10:06:42Z</time>
      </trkpt>
      <trkpt lat="59.9755008361" lon="23.4500645126">
        <ele>25.6</ele>
        <time>2012-02-11T10:06:57Z</time>
      </trkpt>
      <trkpt lat="59.9754834855" lon="23.4501294723">
        <ele>26.2</ele>
        <time>2012-02-11T10:07:10Z</time>
      </trkpt>
      <trkpt lat="59.9754588428" lon="23.4502075916">
        <ele>24.6</ele>
        <time>2012-02-11T10:07:32Z</time>
      </trkpt>
      <trkpt lat="59.9753589305" lon="23.4502821905">
        <ele>26.8</ele>
        <time>2012-02-11T10:11:47Z</time>
      </trkpt>
      <trkpt lat="59.9752749439" lon="23.450333823">
        <ele>27.6</ele>
        <time>2012-02-11T10:11:54Z</time>
      </trkpt>
      <trkpt lat="59.9750619598" lon="23.4503874672">
        <ele>28</ele>
        <time>2012-02-11T10:12:00Z</time>
      </trkpt>
      <trkpt lat="59.974874792" lon="23.4503346612">
        <ele>28.2</ele>
        <time>2012-02-11T10:12:05Z</time>
      </trkpt>
      <trkpt lat="59.9748527476" lon="23.4503160534">
        <ele>28.2</ele>
        <time>2012-02-11T10:12:06Z</time>
      </trkpt>
      <trkpt lat="59.9747919788" lon="23.4499360181">
        <ele>28.2</ele>
        <time>2012-02-11T10:12:11Z</time>
      </trkpt>
      <trkpt lat="59.9747732033" lon="23.4497546337">
        <ele>28.2</ele>
        <time>2012-02-11T10:12:14Z</time>
      </trkpt>
      <trkpt lat="59.9747291145" lon="23.4496425677">
        <ele>28.2</ele>
        <time>2012-02-11T10:12:16Z</time>
      </trkpt>
      <trkpt lat="59.9744995343" lon="23.449679029">
        <ele>28.2</ele>
        <time>2012-02-11T10:12:22Z</time>
      </trkpt>
      <trkpt lat="59.9743123665" lon="23.4497852277">
        <ele>27.4</ele>
        <time>2012-02-11T10:12:27Z</time>
      </trkpt>
      <trkpt lat="59.9742892324" lon="23.4497936934">
        <ele>27.2</ele>
        <time>2012-02-11T10:12:28Z</time>
      </trkpt>
      <trkpt lat="59.9741546191" lon="23.4496229541">
        <ele>27</ele>
        <time>2012-02-11T10:12:32Z</time>
      </trkpt>
      <trkpt lat="59.9740734823" lon="23.4492780389">
        <ele>26.6</ele>
        <time>2012-02-11T10:12:37Z</time>
      </trkpt>
      <trkpt lat="59.9740288068" lon="23.4489477082">
        <ele>25.8</ele>
        <time>2012-02-11T10:12:42Z</time>
      </trkpt>
      <trkpt lat="59.9739827902" lon="23.448600027">
        <ele>25.2</ele>
        <time>2012-02-11T10:12:47Z</time>
      </trkpt>
      <trkpt lat="59.9739293136" lon="23.4482484063">
        <ele>24.8</ele>
        <time>2012-02-11T10:12:52Z</time>
      </trkpt>
      <trkpt lat="59.9738753342" lon="23.4478848833">
        <ele>24.2</ele>
        <time>2012-02-11T10:12:57Z</time>
      </trkpt>
      <trkpt lat="59.9738313292" lon="23.4476218593">
        <ele>23.4</ele>
        <time>2012-02-11T10:13:01Z</time>
      </trkpt>
      <trkpt lat="59.9737605022" lon="23.4474077856">
        <ele>23</ele>
        <time>2012-02-11T10:13:05Z</time>
      </trkpt>
      <trkpt lat="59.9735503679" lon="23.447457155">
        <ele>22.6</ele>
        <time>2012-02-11T10:13:12Z</time>
      </trkpt>
      <trkpt lat="59.9734315126" lon="23.4474573226">
        <ele>22.4</ele>
        <time>2012-02-11T10:13:16Z</time>
      </trkpt>
      <trkpt lat="59.9732674788" lon="23.447559498">
        <ele>22.4</ele>
        <time>2012-02-11T10:13:21Z</time>
      </trkpt>
      <trkpt lat="59.9731730148" lon="23.447625715">
        <ele>22.2</ele>
        <time>2012-02-11T10:13:24Z</time>
      </trkpt>
      <trkpt lat="59.9731273335" lon="23.4474681352">
        <ele>22.2</ele>
        <time>2012-02-11T10:13:28Z</time>
      </trkpt>
      <trkpt lat="59.9731827378" lon="23.447416838">
        <ele>22.2</ele>
        <time>2012-02-11T10:13:30Z</time>
      </trkpt>
      <trkpt lat="59.9732689037" lon="23.4473646188">
        <ele>22.2</ele>
        <time>2012-02-11T10:13:34Z</time>
      </trkpt>
      <trkpt lat="59.9731989149" lon="23.4473263973">
        <ele>21.8</ele>
        <time>2012-02-11T10:13:38Z</time>
      </trkpt>
      <trkpt lat="59.9731285069" lon="23.4474468452">
        <ele>21.2</ele>
        <time>2012-02-11T10:13:42Z</time>
      </trkpt>
      <trkpt lat="59.9731601905" lon="23.4475251322">
        <ele>21</ele>
        <time>2012-02-11T10:13:45Z</time>
      </trkpt>
      <trkpt lat="59.9731877669" lon="23.4475132299">
        <ele>20.8</ele>
        <time>2012-02-11T10:13:46Z</time>
      </trkpt>
      <trkpt lat="59.9733259845" lon="23.4474200231">
        <ele>20.6</ele>
        <time>2012-02-11T10:13:51Z</time>
      </trkpt>
      <trkpt lat="59.9734336919" lon="23.447345508">
        <ele>20.4</ele>
        <time>2012-02-11T10:13:56Z</time>
      </trkpt>
      <trkpt lat="59.9736004079" lon="23.4472536424">
        <ele>19.4</ele>
        <time>2012-02-11T10:14:01Z</time>
      </trkpt>
      <trkpt lat="59.9737225322" lon="23.4469112418">
        <ele>18.8</ele>
        <time>2012-02-11T10:14:08Z</time>
      </trkpt>
      <trkpt lat="59.9737294053" lon="23.4466029555">
        <ele>18.4</ele>
        <time>2012-02-11T10:14:12Z</time>
      </trkpt>
      <trkpt lat="59.9736816285" lon="23.4461801725">
        <ele>18.2</ele>
        <time>2012-02-11T10:14:18Z</time>
      </trkpt>
      <trkpt lat="59.9736697262" lon="23.4461199066">
        <ele>18.2</ele>
        <time>2012-02-11T10:14:19Z</time>
      </trkpt>
      <trkpt lat="59.9737230351" lon="23.4459324873">
        <ele>18.2</ele>
        <time>2012-02-11T10:14:23Z</time>
      </trkpt>
      <trkpt lat="59.9737879948" lon="23.4457581438">
        <ele>18.2</ele>
        <time>2012-02-11T10:14:27Z</time>
      </trkpt>
      <trkpt lat="59.9738480092" lon="23.4456396238">
        <ele>18.2</ele>
        <time>2012-02-11T10:14:31Z</time>
      </trkpt>
      <trkpt lat="59.9738596601" lon="23.445585309">
        <ele>18.2</ele>
        <time>2012-02-11T10:14:32Z</time>
      </trkpt>
      <trkpt lat="59.973939791" lon="23.4451355363">
        <ele>18.4</ele>
        <time>2012-02-11T10:14:39Z</time>
      </trkpt>
      <trkpt lat="59.9740403738" lon="23.4449564151">
        <ele>19</ele>
        <time>2012-02-11T10:14:43Z</time>
      </trkpt>
      <trkpt lat="59.9740966164" lon="23.4448824029">
        <ele>19.2</ele>
        <time>2012-02-11T10:14:45Z</time>
      </trkpt>
      <trkpt lat="59.9740964487" lon="23.4446635515">
        <ele>19.6</ele>
        <time>2012-02-11T10:14:49Z</time>
      </trkpt>
      <trkpt lat="59.974089827" lon="23.4445938141">
        <ele>19.6</ele>
        <time>2012-02-11T10:14:50Z</time>
      </trkpt>
      <trkpt lat="59.974062502" lon="23.4442130244">
        <ele>19.8</ele>
        <time>2012-02-11T10:14:56Z</time>
      </trkpt>
      <trkpt lat="59.9740667768" lon="23.4439282074">
        <ele>20.8</ele>
        <time>2012-02-11T10:15:01Z</time>
      </trkpt>
      <trkpt lat="59.9741267074" lon="23.4438703723">
        <ele>21.2</ele>
        <time>2012-02-11T10:15:04Z</time>
      </trkpt>
      <trkpt lat="59.9740929283" lon="23.4436669436">
        <ele>21.4</ele>
        <time>2012-02-11T10:15:08Z</time>
      </trkpt>
      <trkpt lat="59.9740190838" lon="23.443322699">
        <ele>21.8</ele>
        <time>2012-02-11T10:15:13Z</time>
      </trkpt>
      <trkpt lat="59.9739736539" lon="23.4430333558">
        <ele>22.4</ele>
        <time>2012-02-11T10:15:17Z</time>
      </trkpt>
      <trkpt lat="59.973968038" lon="23.4429872553">
        <ele>22.6</ele>
        <time>2012-02-11T10:15:18Z</time>
      </trkpt>
      <trkpt lat="59.9740495939" lon="23.4428596828">
        <ele>23.2</ele>
        <time>2012-02-11T10:15:22Z</time>
      </trkpt>
      <trkpt lat="59.9741900746" lon="23.4428583417">
        <ele>24.4</ele>
        <time>2012-02-11T10:15:26Z</time>
      </trkpt>
      <trkpt lat="59.974250089" lon="23.442953141">
        <ele>24.8</ele>
        <time>2012-02-11T10:15:28Z</time>
      </trkpt>
      <trkpt lat="59.9743920783" lon="23.443267127">
        <ele>26.2</ele>
        <time>2012-02-11T10:15:35Z</time>
      </trkpt>
      <trkpt lat="59.9743887256" lon="23.4432543027">
        <ele>26.4</ele>
        <time>2012-02-11T10:15:36Z</time>
      </trkpt>
      <trkpt lat="59.9743708721" lon="23.4431734173">
        <ele>26.8</ele>
        <time>2012-02-11T10:15:38Z</time>
      </trkpt>
      <trkpt lat="59.9744302998" lon="23.4430127363">
        <ele>27.4</ele>
        <time>2012-02-11T10:15:42Z</time>
      </trkpt>
      <trkpt lat="59.9744605585" lon="23.4429958049">
        <ele>27.6</ele>
        <time>2012-02-11T10:15:43Z</time>
      </trkpt>
      <trkpt lat="59.9745735465" lon="23.4429043583">
        <ele>28</ele>
        <time>2012-02-11T10:15:47Z</time>
      </trkpt>
      <trkpt lat="59.9746749675" lon="23.4428119898">
        <ele>28.8</ele>
        <time>2012-02-11T10:15:52Z</time>
      </trkpt>
      <trkpt lat="59.9748019533" lon="23.4427440964">
        <ele>29.4</ele>
        <time>2012-02-11T10:15:56Z</time>
      </trkpt>
      <trkpt lat="59.9748277695" lon="23.4427214653">
        <ele>29.6</ele>
        <time>2012-02-11T10:15:57Z</time>
      </trkpt>
      <trkpt lat="59.974893316" lon="23.4426380654">
        <ele>29.8</ele>
        <time>2012-02-11T10:16:00Z</time>
      </trkpt>
      <trkpt lat="59.9748816651" lon="23.4423737841">
        <ele>30.2</ele>
        <time>2012-02-11T10:16:05Z</time>
      </trkpt>
      <trkpt lat="59.9748222374" lon="23.4421053118">
        <ele>30.4</ele>
        <time>2012-02-11T10:16:09Z</time>
      </trkpt>
      <trkpt lat="59.9748610456" lon="23.4418883882">
        <ele>31.4</ele>
        <time>2012-02-11T10:16:14Z</time>
      </trkpt>
      <trkpt lat="59.9748889574" lon="23.441807922">
        <ele>31.6</ele>
        <time>2012-02-11T10:16:17Z</time>
      </trkpt>
      <trkpt lat="59.9748880354" lon="23.4416845404">
        <ele>32.2</ele>
        <time>2012-02-11T10:16:24Z</time>
      </trkpt>
      <trkpt lat="59.9748669968" lon="23.4414694609">
        <ele>32.4</ele>
        <time>2012-02-11T10:16:27Z</time>
      </trkpt>
      <trkpt lat="59.9748665777" lon="23.4414023219">
        <ele>32.4</ele>
        <time>2012-02-11T10:16:30Z</time>
      </trkpt>
      <trkpt lat="59.974865069" lon="23.4413872344">
        <ele>32.4</ele>
        <time>2012-02-11T10:16:31Z</time>
      </trkpt>
      <trkpt lat="59.9749925577" lon="23.4411746694">
        <ele>32.6</ele>
        <time>2012-02-11T10:16:37Z</time>
      </trkpt>
      <trkpt lat="59.9751499697" lon="23.4409750964">
        <ele>32.6</ele>
        <time>2012-02-11T10:16:43Z</time>
      </trkpt>
      <trkpt lat="59.9752749439" lon="23.4409980628">
        <ele>32.6</ele>
        <time>2012-02-11T10:16:48Z</time>
      </trkpt>
      <trkpt lat="59.9753906979" lon="23.4411318379">
        <ele>32.6</ele>
        <time>2012-02-11T10:16:53Z</time>
      </trkpt>
      <trkpt lat="59.9754592618" lon="23.4415704628">
        <ele>32.6</ele>
        <time>2012-02-11T10:17:00Z</time>
      </trkpt>
      <trkpt lat="59.9754839046" lon="23.4417515118">
        <ele>32.6</ele>
        <time>2012-02-11T10:17:03Z</time>
      </trkpt>
      <trkpt lat="59.9755945457" lon="23.441877827">
        <ele>32.6</ele>
        <time>2012-02-11T10:17:09Z</time>
      </trkpt>
      <trkpt lat="59.9756815498" lon="23.4419277832">
        <ele>32.6</ele>
        <time>2012-02-11T10:17:13Z</time>
      </trkpt>
      <trkpt lat="59.9757481021" lon="23.4420188944">
        <ele>32.6</ele>
        <time>2012-02-11T10:17:16Z</time>
      </trkpt>
      <trkpt lat="59.9758601681" lon="23.4419380091">
        <ele>32.8</ele>
        <time>2012-02-11T10:17:20Z</time>
      </trkpt>
      <trkpt lat="59.9760517784" lon="23.4416400325">
        <ele>32.8</ele>
        <time>2012-02-11T10:17:27Z</time>
      </trkpt>
      <trkpt lat="59.9761527803" lon="23.4414669463">
        <ele>32</ele>
        <time>2012-02-11T10:17:31Z</time>
      </trkpt>
      <trkpt lat="59.9762319054" lon="23.4415964467">
        <ele>31.6</ele>
        <time>2012-02-11T10:17:35Z</time>
      </trkpt>
      <trkpt lat="59.976251519" lon="23.4416497555">
        <ele>31.4</ele>
        <time>2012-02-11T10:17:36Z</time>
      </trkpt>
      <trkpt lat="59.976381187" lon="23.4419992808">
        <ele>31</ele>
        <time>2012-02-11T10:17:42Z</time>
      </trkpt>
      <trkpt lat="59.976492331" lon="23.4423582775">
        <ele>30.8</ele>
        <time>2012-02-11T10:17:48Z</time>
      </trkpt>
      <trkpt lat="59.976584951" lon="23.4426603612">
        <ele>30.8</ele>
        <time>2012-02-11T10:17:53Z</time>
      </trkpt>
      <trkpt lat="59.9766596337" lon="23.442895725">
        <ele>30.8</ele>
        <time>2012-02-11T10:17:57Z</time>
      </trkpt>
      <trkpt lat="59.976750745" lon="23.4432455017">
        <ele>30.6</ele>
        <time>2012-02-11T10:18:02Z</time>
      </trkpt>
      <trkpt lat="59.9767577858" lon="23.4433488505">
        <ele>30.6</ele>
        <time>2012-02-11T10:18:04Z</time>
      </trkpt>
      <trkpt lat="59.976736412" lon="23.4434200128">
        <ele>30.6</ele>
        <time>2012-02-11T10:18:08Z</time>
      </trkpt>
      <trkpt lat="59.9766673451" lon="23.4434549653">
        <ele>30.6</ele>
        <time>2012-02-11T10:18:11Z</time>
      </trkpt>
      <trkpt lat="59.9765152974" lon="23.4435375271">
        <ele>30.6</ele>
        <time>2012-02-11T10:18:15Z</time>
      </trkpt>
      <trkpt lat="59.9763078454" lon="23.4435675343">
        <ele>30.6</ele>
        <time>2012-02-11T10:18:21Z</time>
      </trkpt>
      <trkpt lat="59.9761264611" lon="23.4435868964">
        <ele>30.6</ele>
        <time>2012-02-11T10:18:27Z</time>
      </trkpt>
      <trkpt lat="59.975987573" lon="23.4436293927">
        <ele>30.6</ele>
        <time>2012-02-11T10:18:32Z</time>
      </trkpt>
      <trkpt lat="59.9757952084" lon="23.4437149719">
        <ele>30.6</ele>
        <time>2012-02-11T10:18:38Z</time>
      </trkpt>
      <trkpt lat="59.9757652012" lon="23.4437347532">
        <ele>30.6</ele>
        <time>2012-02-11T10:18:39Z</time>
      </trkpt>
      <trkpt lat="59.9757181787" lon="23.4439739726">
        <ele>30.6</ele>
        <time>2012-02-11T10:18:43Z</time>
      </trkpt>
      <trkpt lat="59.9757207771" lon="23.4440404411">
        <ele>30.6</ele>
        <time>2012-02-11T10:18:44Z</time>
      </trkpt>
      <trkpt lat="59.9757540533" lon="23.444505888">
        <ele>30.6</ele>
        <time>2012-02-11T10:18:51Z</time>
      </trkpt>
      <trkpt lat="59.9757554782" lon="23.444902268">
        <ele>30.6</ele>
        <time>2012-02-11T10:18:57Z</time>
      </trkpt>
      <trkpt lat="59.9757284047" lon="23.445123634">
        <ele>30.6</ele>
        <time>2012-02-11T10:19:01Z</time>
      </trkpt>
      <trkpt lat="59.9757136525" lon="23.4452388013">
        <ele>30.8</ele>
        <time>2012-02-11T10:19:04Z</time>
      </trkpt>
      <trkpt lat="59.9757154965" lon="23.4453669606">
        <ele>31.4</ele>
        <time>2012-02-11T10:19:09Z</time>
      </trkpt>
      <trkpt lat="59.9757210286" lon="23.4454171681">
        <ele>31.6</ele>
        <time>2012-02-11T10:19:10Z</time>
      </trkpt>
      <trkpt lat="59.9758064401" lon="23.4454812897">
        <ele>32</ele>
        <time>2012-02-11T10:19:15Z</time>
      </trkpt>
      <trkpt lat="59.9758198512" lon="23.4454777693">
        <ele>32</ele>
        <time>2012-02-11T10:19:16Z</time>
      </trkpt>
      <trkpt lat="59.9758827154" lon="23.4454873246">
        <ele>32.2</ele>
        <time>2012-02-11T10:19:19Z</time>
      </trkpt>
      <trkpt lat="59.9760120482" lon="23.4453578243">
        <ele>32.4</ele>
        <time>2012-02-11T10:19:24Z</time>
      </trkpt>
      <trkpt lat="59.9760377806" lon="23.4453313375">
        <ele>32.4</ele>
        <time>2012-02-11T10:19:25Z</time>
      </trkpt>
      <trkpt lat="59.9760920953" lon="23.4452878354">
        <ele>32.4</ele>
        <time>2012-02-11T10:19:27Z</time>
      </trkpt>
      <trkpt lat="59.976102405" lon="23.4454132286">
        <ele>32.6</ele>
        <time>2012-02-11T10:19:32Z</time>
      </trkpt>
      <trkpt lat="59.9760675363" lon="23.4454848101">
        <ele>32.6</ele>
        <time>2012-02-11T10:19:35Z</time>
      </trkpt>
      <trkpt lat="59.9759992238" lon="23.4454918509">
        <ele>32.6</ele>
        <time>2012-02-11T10:19:38Z</time>
      </trkpt>
      <trkpt lat="59.9758770157" lon="23.4455094529">
        <ele>32.6</ele>
        <time>2012-02-11T10:19:43Z</time>
      </trkpt>
      <trkpt lat="59.9757572384" lon="23.445485313">
        <ele>32.6</ele>
        <time>2012-02-11T10:19:48Z</time>
      </trkpt>
      <trkpt lat="59.9757268959" lon="23.4454983049">
        <ele>32.6</ele>
        <time>2012-02-11T10:19:49Z</time>
      </trkpt>
      <trkpt lat="59.975699068" lon="23.4455185053">
        <ele>32.6</ele>
        <time>2012-02-11T10:19:50Z</time>
      </trkpt>
      <trkpt lat="59.9755895166" lon="23.4455874883">
        <ele>32.6</ele>
        <time>2012-02-11T10:19:54Z</time>
      </trkpt>
      <trkpt lat="59.9755641194" lon="23.4455929366">
        <ele>32.4</ele>
        <time>2012-02-11T10:19:55Z</time>
      </trkpt>
      <trkpt lat="59.9755181866" lon="23.4456387856">
        <ele>32</ele>
        <time>2012-02-11T10:19:57Z</time>
      </trkpt>
      <trkpt lat="59.9754654645" lon="23.4458542004">
        <ele>31.6</ele>
        <time>2012-02-11T10:20:01Z</time>
      </trkpt>
      <trkpt lat="59.9753116566" lon="23.4460400271">
        <ele>31</ele>
        <time>2012-02-11T10:20:09Z</time>
      </trkpt>
      <trkpt lat="59.9752965692" lon="23.4459820244">
        <ele>31</ele>
        <time>2012-02-11T10:20:10Z</time>
      </trkpt>
      <trkpt lat="59.9752190366" lon="23.4455685452">
        <ele>30.8</ele>
        <time>2012-02-11T10:20:16Z</time>
      </trkpt>
      <trkpt lat="59.9751526519" lon="23.4452143262">
        <ele>30.8</ele>
        <time>2012-02-11T10:20:21Z</time>
      </trkpt>
      <trkpt lat="59.9750619598" lon="23.4448714226">
        <ele>30.6</ele>
        <time>2012-02-11T10:20:27Z</time>
      </trkpt>
      <trkpt lat="59.9750467047" lon="23.4448646333">
        <ele>30.6</ele>
        <time>2012-02-11T10:20:28Z</time>
      </trkpt>
      <trkpt lat="59.9749921386" lon="23.4448358834">
        <ele>30.6</ele>
        <time>2012-02-11T10:20:32Z</time>
      </trkpt>
      <trkpt lat="59.9749695913" lon="23.4448088936">
        <ele>30.6</ele>
        <time>2012-02-11T10:20:33Z</time>
      </trkpt>
      <trkpt lat="59.9749384106" lon="23.4447985839">
        <ele>30.6</ele>
        <time>2012-02-11T10:20:34Z</time>
      </trkpt>
      <trkpt lat="59.9748198905" lon="23.4448283397">
        <ele>30.6</ele>
        <time>2012-02-11T10:20:38Z</time>
      </trkpt>
      <trkpt lat="59.9747846027" lon="23.4448425051">
        <ele>30.6</ele>
        <time>2012-02-11T10:20:39Z</time>
      </trkpt>
      <trkpt lat="59.9747150329" lon="23.4448698301">
        <ele>30.6</ele>
        <time>2012-02-11T10:20:41Z</time>
      </trkpt>
      <trkpt lat="59.9745603031" lon="23.4450129929">
        <ele>29.6</ele>
        <time>2012-02-11T10:20:46Z</time>
      </trkpt>
      <trkpt lat="59.9745110175" lon="23.4450462691">
        <ele>29.4</ele>
        <time>2012-02-11T10:20:48Z</time>
      </trkpt>
      <trkpt lat="59.9743553656" lon="23.4448810618">
        <ele>28.8</ele>
        <time>2012-02-11T10:20:53Z</time>
      </trkpt>
      <trkpt lat="59.9743286274" lon="23.4448321115">
        <ele>28.6</ele>
        <time>2012-02-11T10:20:54Z</time>
      </trkpt>
      <trkpt lat="59.9740720574" lon="23.4450023479">
        <ele>27.2</ele>
        <time>2012-02-11T10:21:02Z</time>
      </trkpt>
      <trkpt lat="59.9740462411" lon="23.4450344506">
        <ele>27.2</ele>
        <time>2012-02-11T10:21:03Z</time>
      </trkpt>
      <trkpt lat="59.9739428923" lon="23.4452066148">
        <ele>26.2</ele>
        <time>2012-02-11T10:21:07Z</time>
      </trkpt>
      <trkpt lat="59.9739318282" lon="23.445279705">
        <ele>26</ele>
        <time>2012-02-11T10:21:08Z</time>
      </trkpt>
      <trkpt lat="59.9738536251" lon="23.4456571419">
        <ele>25</ele>
        <time>2012-02-11T10:21:14Z</time>
      </trkpt>
      <trkpt lat="59.9738464167" lon="23.4456856404">
        <ele>25</ele>
        <time>2012-02-11T10:21:15Z</time>
      </trkpt>
      <trkpt lat="59.9737462529" lon="23.4455920984">
        <ele>24.2</ele>
        <time>2012-02-11T10:21:20Z</time>
      </trkpt>
      <trkpt lat="59.9736333488" lon="23.4453620152">
        <ele>23.4</ele>
        <time>2012-02-11T10:21:25Z</time>
      </trkpt>
      <trkpt lat="59.9734940416" lon="23.4450587581">
        <ele>22.8</ele>
        <time>2012-02-11T10:21:31Z</time>
      </trkpt>
      <trkpt lat="59.9734543952" lon="23.4449395675">
        <ele>22.6</ele>
        <time>2012-02-11T10:21:33Z</time>
      </trkpt>
      <trkpt lat="59.9733865018" lon="23.4445306146">
        <ele>22.4</ele>
        <time>2012-02-11T10:21:39Z</time>
      </trkpt>
      <trkpt lat="59.973295642" lon="23.4443115117">
        <ele>22.4</ele>
        <time>2012-02-11T10:21:43Z</time>
      </trkpt>
      <trkpt lat="59.9731689915" lon="23.4439975257">
        <ele>22.2</ele>
        <time>2012-02-11T10:21:49Z</time>
      </trkpt>
      <trkpt lat="59.9730342944" lon="23.4437148042">
        <ele>22</ele>
        <time>2012-02-11T10:21:55Z</time>
      </trkpt>
      <trkpt lat="59.9729114157" lon="23.4434464996">
        <ele>21.2</ele>
        <time>2012-02-11T10:22:00Z</time>
      </trkpt>
      <trkpt lat="59.9728128446" lon="23.4432480162">
        <ele>20.8</ele>
        <time>2012-02-11T10:22:04Z</time>
      </trkpt>
      <trkpt lat="59.9727486392" lon="23.4432210265">
        <ele>20.8</ele>
        <time>2012-02-11T10:22:06Z</time>
      </trkpt>
      <trkpt lat="59.9725885449" lon="23.4433823781">
        <ele>20.4</ele>
        <time>2012-02-11T10:22:11Z</time>
      </trkpt>
      <trkpt lat="59.9724384251" lon="23.4436480843">
        <ele>20.4</ele>
        <time>2012-02-11T10:22:17Z</time>
      </trkpt>
      <trkpt lat="59.9724442924" lon="23.4436284707">
        <ele>20.2</ele>
        <time>2012-02-11T10:22:20Z</time>
      </trkpt>
      <trkpt lat="59.9725313804" lon="23.4434647722">
        <ele>20.2</ele>
        <time>2012-02-11T10:22:24Z</time>
      </trkpt>
      <trkpt lat="59.97267974" lon="23.4432357787">
        <ele>20.2</ele>
        <time>2012-02-11T10:22:30Z</time>
      </trkpt>
      <trkpt lat="59.9728079831" lon="23.4430293325">
        <ele>20.2</ele>
        <time>2012-02-11T10:22:35Z</time>
      </trkpt>
      <trkpt lat="59.9728645609" lon="23.4428103134">
        <ele>20.2</ele>
        <time>2012-02-11T10:22:39Z</time>
      </trkpt>
      <trkpt lat="59.9729287662" lon="23.4424133466">
        <ele>20.2</ele>
        <time>2012-02-11T10:22:45Z</time>
      </trkpt>
      <trkpt lat="59.9730040357" lon="23.4420610554">
        <ele>20.2</ele>
        <time>2012-02-11T10:22:50Z</time>
      </trkpt>
      <trkpt lat="59.9731005952" lon="23.4417257794">
        <ele>20.2</ele>
        <time>2012-02-11T10:22:55Z</time>
      </trkpt>
      <trkpt lat="59.9731390681" lon="23.441373069">
        <ele>20.2</ele>
        <time>2012-02-11T10:23:00Z</time>
      </trkpt>
      <trkpt lat="59.9731690753" lon="23.4410901799">
        <ele>20.2</ele>
        <time>2012-02-11T10:23:04Z</time>
      </trkpt>
      <trkpt lat="59.9731008466" lon="23.4408725858">
        <ele>20.2</ele>
        <time>2012-02-11T10:23:08Z</time>
      </trkpt>
      <trkpt lat="59.9729965758" lon="23.4406932969">
        <ele>20.2</ele>
        <time>2012-02-11T10:23:12Z</time>
      </trkpt>
      <trkpt lat="59.9728531615" lon="23.4404270878">
        <ele>20.2</ele>
        <time>2012-02-11T10:23:18Z</time>
      </trkpt>
      <trkpt lat="59.9727464599" lon="23.4402462064">
        <ele>20.2</ele>
        <time>2012-02-11T10:23:22Z</time>
      </trkpt>
      <trkpt lat="59.97264638" lon="23.4402980065">
        <ele>20.2</ele>
        <time>2012-02-11T10:23:26Z</time>
      </trkpt>
      <trkpt lat="59.9725389241" lon="23.4404476234">
        <ele>20.2</ele>
        <time>2012-02-11T10:23:30Z</time>
      </trkpt>
      <trkpt lat="59.9725128564" lon="23.4404819054">
        <ele>20.2</ele>
        <time>2012-02-11T10:23:31Z</time>
      </trkpt>
      <trkpt lat="59.9724877107" lon="23.440574274">
        <ele>20</ele>
        <time>2012-02-11T10:23:35Z</time>
      </trkpt>
      <trkpt lat="59.9724026344" lon="23.4405535707">
        <ele>19.2</ele>
        <time>2012-02-11T10:23:40Z</time>
      </trkpt>
      <trkpt lat="59.9723734654" lon="23.4405808957">
        <ele>19</ele>
        <time>2012-02-11T10:23:41Z</time>
      </trkpt>
      <trkpt lat="59.9721961882" lon="23.4407607712">
        <ele>18.6</ele>
        <time>2012-02-11T10:23:47Z</time>
      </trkpt>
      <trkpt lat="59.9720803503" lon="23.4408483621">
        <ele>18.4</ele>
        <time>2012-02-11T10:23:51Z</time>
      </trkpt>
      <trkpt lat="59.9719656859" lon="23.4409679718">
        <ele>18.4</ele>
        <time>2012-02-11T10:23:55Z</time>
      </trkpt>
      <trkpt lat="59.9719090243" lon="23.4409605119">
        <ele>18.2</ele>
        <time>2012-02-11T10:23:57Z</time>
      </trkpt>
      <trkpt lat="59.9717946952" lon="23.4405755312">
        <ele>18.2</ele>
        <time>2012-02-11T10:24:03Z</time>
      </trkpt>
      <trkpt lat="59.971743817" lon="23.4402239105">
        <ele>18.2</ele>
        <time>2012-02-11T10:24:08Z</time>
      </trkpt>
      <trkpt lat="59.9716820424" lon="23.439870362">
        <ele>18.2</ele>
        <time>2012-02-11T10:24:13Z</time>
      </trkpt>
      <trkpt lat="59.9716344332" lon="23.4395158076">
        <ele>18.2</ele>
        <time>2012-02-11T10:24:18Z</time>
      </trkpt>
      <trkpt lat="59.9715886681" lon="23.4391118">
        <ele>18.2</ele>
        <time>2012-02-11T10:24:24Z</time>
      </trkpt>
      <trkpt lat="59.9715624327" lon="23.4390120554">
        <ele>18.2</ele>
        <time>2012-02-11T10:24:26Z</time>
      </trkpt>
      <trkpt lat="59.971545166" lon="23.4389670446">
        <ele>18.2</ele>
        <time>2012-02-11T10:24:27Z</time>
      </trkpt>
      <trkpt lat="59.9714580781" lon="23.4389710679">
        <ele>18.2</ele>
        <time>2012-02-11T10:24:30Z</time>
      </trkpt>
      <trkpt lat="59.9714269812" lon="23.4389967166">
        <ele>18.2</ele>
        <time>2012-02-11T10:24:31Z</time>
      </trkpt>
      <trkpt lat="59.9712259833" lon="23.4391333415">
        <ele>18.2</ele>
        <time>2012-02-11T10:24:37Z</time>
      </trkpt>
      <trkpt lat="59.9710281704" lon="23.4392436473">
        <ele>18.2</ele>
        <time>2012-02-11T10:24:43Z</time>
      </trkpt>
      <trkpt lat="59.970979723" lon="23.4392861436">
        <ele>18.2</ele>
        <time>2012-02-11T10:24:46Z</time>
      </trkpt>
      <trkpt lat="59.9709721793" lon="23.4392801086">
        <ele>18.2</ele>
        <time>2012-02-11T10:24:47Z</time>
      </trkpt>
      <trkpt lat="59.9709093151" lon="23.4393381952">
        <ele>18.2</ele>
        <time>2012-02-11T10:24:51Z</time>
      </trkpt>
      <trkpt lat="59.970906549" lon="23.4393889895">
        <ele>18.2</ele>
        <time>2012-02-11T10:24:52Z</time>
      </trkpt>
      <trkpt lat="59.9709373106" lon="23.4397141234">
        <ele>18.2</ele>
        <time>2012-02-11T10:24:57Z</time>
      </trkpt>
      <trkpt lat="59.9709949781" lon="23.4401141915">
        <ele>18.2</ele>
        <time>2012-02-11T10:25:03Z</time>
      </trkpt>
      <trkpt lat="59.9710269969" lon="23.4404679076">
        <ele>18.2</ele>
        <time>2012-02-11T10:25:08Z</time>
      </trkpt>
      <trkpt lat="59.9710114066" lon="23.4405400758">
        <ele>18.2</ele>
        <time>2012-02-11T10:25:09Z</time>
      </trkpt>
      <trkpt lat="59.9709106562" lon="23.440686759">
        <ele>18.2</ele>
        <time>2012-02-11T10:25:12Z</time>
      </trkpt>
      <trkpt lat="59.9707433535" lon="23.4408672214">
        <ele>18.2</ele>
        <time>2012-02-11T10:25:17Z</time>
      </trkpt>
      <trkpt lat="59.9706110871" lon="23.4409862443">
        <ele>18.2</ele>
        <time>2012-02-11T10:25:21Z</time>
      </trkpt>
      <trkpt lat="59.97042635" lon="23.4411788604">
        <ele>18.2</ele>
        <time>2012-02-11T10:25:27Z</time>
      </trkpt>
      <trkpt lat="59.9702651661" lon="23.441356389">
        <ele>18.2</ele>
        <time>2012-02-11T10:25:32Z</time>
      </trkpt>
      <trkpt lat="59.9701049041" lon="23.4415260387">
        <ele>18.2</ele>
        <time>2012-02-11T10:25:37Z</time>
      </trkpt>
      <trkpt lat="59.9699327399" lon="23.4417063334">
        <ele>18.2</ele>
        <time>2012-02-11T10:25:43Z</time>
      </trkpt>
      <trkpt lat="59.9698643436" lon="23.4418297988">
        <ele>18.2</ele>
        <time>2012-02-11T10:25:46Z</time>
      </trkpt>
      <trkpt lat="59.9698575543" lon="23.4420513324">
        <ele>18.2</ele>
        <time>2012-02-11T10:25:50Z</time>
      </trkpt>
      <trkpt lat="59.9699575503" lon="23.4424286017">
        <ele>18.2</ele>
        <time>2012-02-11T10:25:56Z</time>
      </trkpt>
      <trkpt lat="59.9700518467" lon="23.4427402407">
        <ele>18.2</ele>
        <time>2012-02-11T10:26:01Z</time>
      </trkpt>
      <trkpt lat="59.9700847876" lon="23.4431403088">
        <ele>18.2</ele>
        <time>2012-02-11T10:26:07Z</time>
      </trkpt>
      <trkpt lat="59.9700078417" lon="23.4432102139">
        <ele>18.2</ele>
        <time>2012-02-11T10:26:10Z</time>
      </trkpt>
      <trkpt lat="59.9700272039" lon="23.4432076155">
        <ele>18.2</ele>
        <time>2012-02-11T10:26:13Z</time>
      </trkpt>
      <trkpt lat="59.9701051556" lon="23.4431755128">
        <ele>18.2</ele>
        <time>2012-02-11T10:26:16Z</time>
      </trkpt>
      <trkpt lat="59.9701402757" lon="23.4431428234">
        <ele>18.2</ele>
        <time>2012-02-11T10:26:17Z</time>
      </trkpt>
      <trkpt lat="59.9703272759" lon="23.4429154224">
        <ele>18.2</ele>
        <time>2012-02-11T10:26:23Z</time>
      </trkpt>
      <trkpt lat="59.9704873702" lon="23.4427230578">
        <ele>18.2</ele>
        <time>2012-02-11T10:26:28Z</time>
      </trkpt>
      <trkpt lat="59.9706429383" lon="23.4425403324">
        <ele>18.2</ele>
        <time>2012-02-11T10:26:33Z</time>
      </trkpt>
      <trkpt lat="59.9708006856" lon="23.4423563497">
        <ele>18.2</ele>
        <time>2012-02-11T10:26:38Z</time>
      </trkpt>
      <trkpt lat="59.9708313634" lon="23.4423504824">
        <ele>18.2</ele>
        <time>2012-02-11T10:26:39Z</time>
      </trkpt>
      <trkpt lat="59.9708780506" lon="23.4423618818">
        <ele>18.2</ele>
        <time>2012-02-11T10:26:41Z</time>
      </trkpt>
      <trkpt lat="59.9709702515" lon="23.4425779671">
        <ele>18.2</ele>
        <time>2012-02-11T10:26:46Z</time>
      </trkpt>
      <trkpt lat="59.9710997518" lon="23.4428681485">
        <ele>18.2</ele>
        <time>2012-02-11T10:26:52Z</time>
      </trkpt>
      <trkpt lat="59.9712268214" lon="23.443161515">
        <ele>18.2</ele>
        <time>2012-02-11T10:26:58Z</time>
      </trkpt>
      <trkpt lat="59.971353472" lon="23.4434309931">
        <ele>18.2</ele>
        <time>2012-02-11T10:27:04Z</time>
      </trkpt>
      <trkpt lat="59.9714243828" lon="23.4435720605">
        <ele>18.2</ele>
        <time>2012-02-11T10:27:08Z</time>
      </trkpt>
      <trkpt lat="59.9714837267" lon="23.4436597352">
        <ele>18.2</ele>
        <time>2012-02-11T10:27:12Z</time>
      </trkpt>
      <trkpt lat="59.9715953736" lon="23.443888561">
        <ele>18.2</ele>
        <time>2012-02-11T10:27:18Z</time>
      </trkpt>
      <trkpt lat="59.9716915978" lon="23.4441892198">
        <ele>18.2</ele>
        <time>2012-02-11T10:27:24Z</time>
      </trkpt>
      <trkpt lat="59.9717705553" lon="23.4444488072">
        <ele>19</ele>
        <time>2012-02-11T10:27:29Z</time>
      </trkpt>
      <trkpt lat="59.9718262111" lon="23.4447418384">
        <ele>19.4</ele>
        <time>2012-02-11T10:27:34Z</time>
      </trkpt>
      <trkpt lat="59.9717909233" lon="23.4450045272">
        <ele>19.8</ele>
        <time>2012-02-11T10:27:39Z</time>
      </trkpt>
      <trkpt lat="59.9717852236" lon="23.445315328">
        <ele>20.4</ele>
        <time>2012-02-11T10:27:45Z</time>
      </trkpt>
      <trkpt lat="59.9718651869" lon="23.4453997338">
        <ele>21</ele>
        <time>2012-02-11T10:27:50Z</time>
      </trkpt>
      <trkpt lat="59.9718894945" lon="23.4454177549">
        <ele>21.2</ele>
        <time>2012-02-11T10:27:51Z</time>
      </trkpt>
      <trkpt lat="59.9719585613" lon="23.4455345147">
        <ele>21.6</ele>
        <time>2012-02-11T10:27:55Z</time>
      </trkpt>
      <trkpt lat="59.9720839545" lon="23.4457339201">
        <ele>21.8</ele>
        <time>2012-02-11T10:28:02Z</time>
      </trkpt>
      <trkpt lat="59.9722049054" lon="23.4459728881">
        <ele>22</ele>
        <time>2012-02-11T10:28:09Z</time>
      </trkpt>
      <trkpt lat="59.9722193222" lon="23.4460153005">
        <ele>22</ele>
        <time>2012-02-11T10:28:10Z</time>
      </trkpt>
      <trkpt lat="59.972224519" lon="23.4462783245">
        <ele>22.2</ele>
        <time>2012-02-11T10:28:15Z</time>
      </trkpt>
      <trkpt lat="59.9722213339" lon="23.4463990239">
        <ele>22.2</ele>
        <time>2012-02-11T10:28:17Z</time>
      </trkpt>
      <trkpt lat="59.9723031412" lon="23.4466322084">
        <ele>22.2</ele>
        <time>2012-02-11T10:28:22Z</time>
      </trkpt>
      <trkpt lat="59.972387547" lon="23.4467543326">
        <ele>22.2</ele>
        <time>2012-02-11T10:28:26Z</time>
      </trkpt>
      <trkpt lat="59.9723976052" lon="23.4470934643">
        <ele>22.2</ele>
        <time>2012-02-11T10:28:32Z</time>
      </trkpt>
      <trkpt lat="59.9724025506" lon="23.4471590108">
        <ele>22.2</ele>
        <time>2012-02-11T10:28:33Z</time>
      </trkpt>
      <trkpt lat="59.9724413588" lon="23.4475332626">
        <ele>22</ele>
        <time>2012-02-11T10:28:39Z</time>
      </trkpt>
      <trkpt lat="59.9724934104" lon="23.447841046">
        <ele>21.2</ele>
        <time>2012-02-11T10:28:44Z</time>
      </trkpt>
      <trkpt lat="59.9725121858" lon="23.4478853024">
        <ele>21.2</ele>
        <time>2012-02-11T10:28:45Z</time>
      </trkpt>
      <trkpt lat="59.9726266826" lon="23.4478437282">
        <ele>20.8</ele>
        <time>2012-02-11T10:28:49Z</time>
      </trkpt>
      <trkpt lat="59.9727985115" lon="23.4477413852">
        <ele>20.4</ele>
        <time>2012-02-11T10:28:55Z</time>
      </trkpt>
      <trkpt lat="59.9728311171" lon="23.4476519503">
        <ele>20.4</ele>
        <time>2012-02-11T10:28:57Z</time>
      </trkpt>
      <trkpt lat="59.9728767146" lon="23.4473567398">
        <ele>20.2</ele>
        <time>2012-02-11T10:29:05Z</time>
      </trkpt>
      <trkpt lat="59.97300018" lon="23.4472921992">
        <ele>20.2</ele>
        <time>2012-02-11T10:29:10Z</time>
      </trkpt>
      <trkpt lat="59.9730244875" lon="23.4472688975">
        <ele>20.2</ele>
        <time>2012-02-11T10:29:11Z</time>
      </trkpt>
      <trkpt lat="59.9730396588" lon="23.4470298457">
        <ele>20.2</ele>
        <time>2012-02-11T10:29:15Z</time>
      </trkpt>
      <trkpt lat="59.973026583" lon="23.4469524808">
        <ele>20.2</ele>
        <time>2012-02-11T10:29:16Z</time>
      </trkpt>
      <trkpt lat="59.9729559236" lon="23.4465553463">
        <ele>20.2</ele>
        <time>2012-02-11T10:29:21Z</time>
      </trkpt>
      <trkpt lat="59.9729271737" lon="23.4464058971">
        <ele>20.4</ele>
        <time>2012-02-11T10:29:23Z</time>
      </trkpt>
      <trkpt lat="59.9728817438" lon="23.446180843">
        <ele>20.8</ele>
        <time>2012-02-11T10:29:26Z</time>
      </trkpt>
      <trkpt lat="59.9728522395" lon="23.4460306394">
        <ele>21</ele>
        <time>2012-02-11T10:29:28Z</time>
      </trkpt>
      <trkpt lat="59.9728555084" lon="23.4457320761">
        <ele>21.4</ele>
        <time>2012-02-11T10:29:32Z</time>
      </trkpt>
      <trkpt lat="59.9728812409" lon="23.4456814494">
        <ele>21.6</ele>
        <time>2012-02-11T10:29:33Z</time>
      </trkpt>
      <trkpt lat="59.9730777126" lon="23.4455116321">
        <ele>21.8</ele>
        <time>2012-02-11T10:29:39Z</time>
      </trkpt>
      <trkpt lat="59.9732803031" lon="23.4453807907">
        <ele>22</ele>
        <time>2012-02-11T10:29:45Z</time>
      </trkpt>
      <trkpt lat="59.9734575803" lon="23.445250536">
        <ele>23</ele>
        <time>2012-02-11T10:29:50Z</time>
      </trkpt>
      <trkpt lat="59.9735620188" lon="23.4451774458">
        <ele>23.2</ele>
        <time>2012-02-11T10:29:53Z</time>
      </trkpt>
      <trkpt lat="59.9736796168" lon="23.4453692237">
        <ele>23.6</ele>
        <time>2012-02-11T10:29:58Z</time>
      </trkpt>
      <trkpt lat="59.9737745838" lon="23.4455397953">
        <ele>23.8</ele>
        <time>2012-02-11T10:30:02Z</time>
      </trkpt>
      <trkpt lat="59.9738291499" lon="23.4456169088">
        <ele>24</ele>
        <time>2012-02-11T10:30:04Z</time>
      </trkpt>
      <trkpt lat="59.9738621746" lon="23.445646916">
        <ele>24</ele>
        <time>2012-02-11T10:30:06Z</time>
      </trkpt>
      <trkpt lat="59.9739250389" lon="23.445337121">
        <ele>24.2</ele>
        <time>2012-02-11T10:30:12Z</time>
      </trkpt>
      <trkpt lat="59.97396435" lon="23.445098153">
        <ele>24.2</ele>
        <time>2012-02-11T10:30:16Z</time>
      </trkpt>
      <trkpt lat="59.974115308" lon="23.4449927087">
        <ele>24.2</ele>
        <time>2012-02-11T10:30:21Z</time>
      </trkpt>
      <trkpt lat="59.9742142144" lon="23.4451792898">
        <ele>24.2</ele>
        <time>2012-02-11T10:30:25Z</time>
      </trkpt>
      <trkpt lat="59.9742606501" lon="23.4453679664">
        <ele>24.2</ele>
        <time>2012-02-11T10:30:28Z</time>
      </trkpt>
      <trkpt lat="59.9743511747" lon="23.4456868977">
        <ele>24.2</ele>
        <time>2012-02-11T10:30:33Z</time>
      </trkpt>
      <trkpt lat="59.974401969" lon="23.4460106905">
        <ele>24.6</ele>
        <time>2012-02-11T10:30:38Z</time>
      </trkpt>
      <trkpt lat="59.9744601394" lon="23.4463404344">
        <ele>25.4</ele>
        <time>2012-02-11T10:30:43Z</time>
      </trkpt>
      <trkpt lat="59.9746326389" lon="23.4467155244">
        <ele>26</ele>
        <time>2012-02-11T10:30:52Z</time>
      </trkpt>
      <trkpt lat="59.9746634843" lon="23.4467206374">
        <ele>26.2</ele>
        <time>2012-02-11T10:30:53Z</time>
      </trkpt>
      <trkpt lat="59.9747794898" lon="23.4469719268">
        <ele>27.2</ele>
        <time>2012-02-11T10:30:59Z</time>
      </trkpt>
      <trkpt lat="59.9748138555" lon="23.447065804">
        <ele>27.4</ele>
        <time>2012-02-11T10:31:01Z</time>
      </trkpt>
      <trkpt lat="59.9749045477" lon="23.4470683186">
        <ele>27.8</ele>
        <time>2012-02-11T10:31:06Z</time>
      </trkpt>
      <trkpt lat="59.9749920547" lon="23.4470441787">
        <ele>28.2</ele>
        <time>2012-02-11T10:31:10Z</time>
      </trkpt>
      <trkpt lat="59.9750575174" lon="23.4470061249">
        <ele>28.2</ele>
        <time>2012-02-11T10:31:13Z</time>
      </trkpt>
      <trkpt lat="59.9751260813" lon="23.4471877607">
        <ele>28.4</ele>
        <time>2012-02-11T10:31:18Z</time>
      </trkpt>
      <trkpt lat="59.9751221418" lon="23.4472990723">
        <ele>28.4</ele>
        <time>2012-02-11T10:31:20Z</time>
      </trkpt>
      <trkpt lat="59.9751055457" lon="23.4476289001">
        <ele>28.4</ele>
        <time>2012-02-11T10:31:26Z</time>
      </trkpt>
      <trkpt lat="59.9752511393" lon="23.4479659363">
        <ele>28.6</ele>
        <time>2012-02-11T10:31:33Z</time>
      </trkpt>
      <trkpt lat="59.9753732636" lon="23.4482482387">
        <ele>28.6</ele>
        <time>2012-02-11T10:31:38Z</time>
      </trkpt>
      <trkpt lat="59.9754775344" lon="23.4485390068">
        <ele>28.6</ele>
        <time>2012-02-11T10:31:43Z</time>
      </trkpt>
      <trkpt lat="59.9755487805" lon="23.4488070599">
        <ele>29.2</ele>
        <time>2012-02-11T10:31:47Z</time>
      </trkpt>
      <trkpt lat="59.9756307555" lon="23.4491452696">
        <ele>29.8</ele>
        <time>2012-02-11T10:31:52Z</time>
      </trkpt>
      <trkpt lat="59.9756612656" lon="23.4495500316">
        <ele>30.2</ele>
        <time>2012-02-11T10:31:57Z</time>
      </trkpt>
      <trkpt lat="59.9756455077" lon="23.4496211939">
        <ele>30.2</ele>
        <time>2012-02-11T10:31:58Z</time>
      </trkpt>
      <trkpt lat="59.9756009998" lon="23.4499645165">
        <ele>30.4</ele>
        <time>2012-02-11T10:32:02Z</time>
      </trkpt>
      <trkpt lat="59.9754899396" lon="23.4502937576">
        <ele>30.4</ele>
        <time>2012-02-11T10:32:07Z</time>
      </trkpt>
      <trkpt lat="59.975482815" lon="23.4502910753">
        <ele>30.4</ele>
        <time>2012-02-11T10:32:08Z</time>
      </trkpt>
    </trkseg>
  </trk>
</gpx>